Observation data for Amarillo 7 South Southeast on 01/21/2019      Previous  Date  Next       Current Mesonet Observations  Soil Data  Daily Summary Page  Observations in Plain Language
KAM1 210600Z 20008KT 03/M05 A2995 RMK A01 T00261051  RH  057%=      5-min Rain = 0
KAM1 210601Z 20008KT 03/M05 A2995 RMK A01 T00261051  RH  057%=      5-min Rain = 0
KAM1 210602Z 20008KT 03/M05 A2995 RMK A01 T00261051  RH  057%=      5-min Rain = 0
KAM1 210603Z 20008KT 03/M05 A2995 RMK A01 T00271051  RH  057%=      5-min Rain = 0
KAM1 210604Z 20008KT 03/M05 A2995 RMK A01 T00271051  RH  057%=      5-min Rain = 0
KAM1 210605Z 21009KT 03/M05 A2995 RMK A01 T00281050  RH  056%=      5-min Rain = 0
KAM1 210606Z 20008KT 03/M05 A2995 RMK A01 T00291050  RH  056%=      5-min Rain = 0
KAM1 210607Z 20008KT 03/M05 A2995 RMK A01 T00291050  RH  056%=      5-min Rain = 0
KAM1 210608Z 21008KT 03/M05 A2995 RMK A01 T00291050  RH  056%=      5-min Rain = 0
KAM1 210609Z 21008KT 03/M05 A2995 RMK A01 T00301049  RH  056%=      5-min Rain = 0
KAM1 210610Z 21008KT 03/M05 A2995 RMK A01 T00311049  RH  056%=      5-min Rain = 0
KAM1 210611Z 21008KT 03/M05 A2995 RMK A01 T00321049  RH  056%=      5-min Rain = 0
KAM1 210612Z 21008KT 03/M05 A2995 RMK A01 T00321049  RH  055%=      5-min Rain = 0
KAM1 210613Z 21008KT 03/M05 A2995 RMK A01 T00331048  RH  055%=      5-min Rain = 0
KAM1 210614Z 21008KT 03/M05 A2995 RMK A01 T00331048  RH  055%=      5-min Rain = 0
KAM1 210615Z 21008KT 03/M05 A2995 RMK A01 T00331048  RH  055%=      5-min Rain = 0
KAM1 210616Z 21008KT 03/M05 A2995 RMK A01 T00331049  RH  055%=      5-min Rain = 0
KAM1 210617Z 21008KT 03/M05 A2995 RMK A01 T00331049  RH  055%=      5-min Rain = 0
KAM1 210618Z 21008KT 03/M05 A2995 RMK A01 T00341048  RH  055%=      5-min Rain = 0
KAM1 210619Z 21008KT 03/M05 A2995 RMK A01 T00341048  RH  055%=      5-min Rain = 0
KAM1 210620Z 21009KT 03/M05 A2995 RMK A01 T00341048  RH  055%=      5-min Rain = 0
KAM1 210621Z 20008KT 04/M05 A2995 RMK A01 T00351048  RH  055%=      5-min Rain = 0
KAM1 210622Z 21009KT 04/M05 A2995 RMK A01 T00351048  RH  054%=      5-min Rain = 0
KAM1 210623Z 21009KT 04/M05 A2995 RMK A01 T00361048  RH  054%=      5-min Rain = 0
KAM1 210624Z 21009KT 04/M05 A2995 RMK A01 T00361048  RH  054%=      5-min Rain = 0
KAM1 210625Z 20008KT 04/M05 A2995 RMK A01 T00361048  RH  054%=      5-min Rain = 0
KAM1 210626Z 20009KT 04/M05 A2995 RMK A01 T00371048  RH  054%=      5-min Rain = 0
KAM1 210627Z 20008KT 04/M05 A2994 RMK A01 T00361048  RH  054%=      5-min Rain = 0
KAM1 210628Z 20008KT 04/M05 A2994 RMK A01 T00361048  RH  054%=      5-min Rain = 0
KAM1 210629Z 20008KT 04/M05 A2994 RMK A01 T00361048  RH  054%=      5-min Rain = 0
KAM1 210630Z 20008KT 04/M05 A2994 RMK A01 T00361049  RH  054%=      5-min Rain = 0
KAM1 210631Z 20008KT 04/M05 A2994 RMK A01 T00351049  RH  054%=      5-min Rain = 0
KAM1 210632Z 20008KT 03/M05 A2994 RMK A01 T00341050  RH  054%=      5-min Rain = 0
KAM1 210633Z 20008KT 03/M05 A2994 RMK A01 T00331051  RH  054%=      5-min Rain = 0
KAM1 210634Z 20007KT 03/M05 A2994 RMK A01 T00321051  RH  055%=      5-min Rain = 0
KAM1 210635Z 20007KT 03/M05 A2994 RMK A01 T00321051  RH  055%=      5-min Rain = 0
KAM1 210636Z 20007KT 03/M05 A2994 RMK A01 T00311051  RH  055%=      5-min Rain = 0
KAM1 210637Z 19006KT 03/M05 A2994 RMK A01 T00311051  RH  055%=      5-min Rain = 0
KAM1 210638Z 19006KT 03/M05 A2994 RMK A01 T00301051  RH  055%=      5-min Rain = 0
KAM1 210639Z 19006KT 03/M05 A2994 RMK A01 T00291052  RH  055%=      5-min Rain = 0
KAM1 210640Z 19006KT 03/M05 A2994 RMK A01 T00281052  RH  055%=      5-min Rain = 0
KAM1 210641Z 19006KT 03/M05 A2994 RMK A01 T00281052  RH  056%=      5-min Rain = 0
KAM1 210642Z 18006KT 03/M05 A2994 RMK A01 T00271052  RH  056%=      5-min Rain = 0
KAM1 210643Z 19005KT 03/M05 A2994 RMK A01 T00261052  RH  056%=      5-min Rain = 0
KAM1 210644Z 19005KT 03/M05 A2994 RMK A01 T00261052  RH  056%=      5-min Rain = 0
KAM1 210645Z 19005KT 03/M05 A2994 RMK A01 T00261052  RH  056%=      5-min Rain = 0
KAM1 210646Z 19005KT 03/M05 A2994 RMK A01 T00261052  RH  056%=      5-min Rain = 0
KAM1 210647Z 19005KT 03/M05 A2994 RMK A01 T00261052  RH  056%=      5-min Rain = 0
KAM1 210648Z 19005KT 03/M05 A2994 RMK A01 T00261052  RH  056%=      5-min Rain = 0
KAM1 210649Z 19005KT 03/M05 A2994 RMK A01 T00261053  RH  056%=      5-min Rain = 0
KAM1 210650Z 19005KT 03/M05 A2994 RMK A01 T00261053  RH  056%=      5-min Rain = 0
KAM1 210651Z 20005KT 03/M05 A2994 RMK A01 T00251054  RH  056%=      5-min Rain = 0
KAM1 210652Z 20006KT 02/M05 A2994 RMK A01 T00241053  RH  057%=      5-min Rain = 0
KAM1 210653Z 21006KT 02/M05 A2994 RMK A01 T00231053  RH  057%=      5-min Rain = 0
KAM1 210654Z 21006KT 02/M05 A2994 RMK A01 T00231053  RH  057%=      5-min Rain = 0
KAM1 210655Z 22005KT 02/M05 A2994 RMK A01 T00231053  RH  057%=      5-min Rain = 0
KAM1 210656Z 22006KT 02/M05 A2994 RMK A01 T00231052  RH  057%=      5-min Rain = 0
KAM1 210657Z 22006KT 02/M05 A2994 RMK A01 T00231052  RH  057%=      5-min Rain = 0
KAM1 210658Z 22006KT 02/M05 A2994 RMK A01 T00231053  RH  057%=      5-min Rain = 0
KAM1 210659Z 22006KT 02/M05 A2994 RMK A01 T00221053  RH  058%=      5-min Rain = 0
KAM1 210700Z 22006KT 02/M05 A2994 RMK A01 T00221052  RH  058%=      5-min Rain = 0
KAM1 210701Z 22006KT 02/M05 A2994 RMK A01 T00211052  RH  058%=      5-min Rain = 0
KAM1 210702Z 22006KT 02/M05 A2994 RMK A01 T00211052  RH  059%=      5-min Rain = 0
KAM1 210703Z 22006KT 02/M05 A2994 RMK A01 T00201052  RH  059%=      5-min Rain = 0
KAM1 210704Z 22006KT 02/M05 A2993 RMK A01 T00201051  RH  059%=      5-min Rain = 0
KAM1 210705Z 22006KT 02/M05 A2993 RMK A01 T00201051  RH  060%=      5-min Rain = 0
KAM1 210706Z 22006KT 02/M05 A2993 RMK A01 T00201050  RH  060%=      5-min Rain = 0
KAM1 210707Z 22006KT 02/M05 A2993 RMK A01 T00201050  RH  060%=      5-min Rain = 0
KAM1 210708Z 22006KT 02/M05 A2993 RMK A01 T00211049  RH  060%=      5-min Rain = 0
KAM1 210709Z 21005KT 02/M05 A2993 RMK A01 T00211049  RH  060%=      5-min Rain = 0
KAM1 210710Z 22005KT 02/M05 A2993 RMK A01 T00201049  RH  060%=      5-min Rain = 0
KAM1 210711Z 22005KT 02/M05 A2993 RMK A01 T00201048  RH  060%=      5-min Rain = 0
KAM1 210712Z 22005KT 02/M05 A2993 RMK A01 T00211048  RH  060%=      5-min Rain = 0
KAM1 210713Z 22005KT 02/M05 A2993 RMK A01 T00221047  RH  060%=      5-min Rain = 0
KAM1 210714Z 22005KT 02/M05 A2993 RMK A01 T00231047  RH  060%=      5-min Rain = 0
KAM1 210715Z 21006KT 02/M05 A2993 RMK A01 T00231048  RH  060%=      5-min Rain = 0
KAM1 210716Z 21005KT 02/M05 A2993 RMK A01 T00231048  RH  059%=      5-min Rain = 0
KAM1 210717Z 21006KT 02/M05 A2993 RMK A01 T00231049  RH  059%=      5-min Rain = 0
KAM1 210718Z 22006KT 02/M05 A2993 RMK A01 T00221049  RH  059%=      5-min Rain = 0
KAM1 210719Z 22006KT 02/M05 A2993 RMK A01 T00211050  RH  060%=      5-min Rain = 0
KAM1 210720Z 22006KT 02/M05 A2993 RMK A01 T00201050  RH  060%=      5-min Rain = 0
KAM1 210721Z 23006KT 02/M05 A2993 RMK A01 T00201050  RH  060%=      5-min Rain = 0
KAM1 210722Z 23006KT 02/M05 A2993 RMK A01 T00201049  RH  060%=      5-min Rain = 0
KAM1 210723Z 23007KT 02/M05 A2993 RMK A01 T00201049  RH  060%=      5-min Rain = 0
KAM1 210724Z 22007KT 02/M05 A2993 RMK A01 T00211049  RH  060%=      5-min Rain = 0
KAM1 210725Z 22007KT 02/M05 A2993 RMK A01 T00201050  RH  060%=      5-min Rain = 0
KAM1 210726Z 22007KT 02/M05 A2993 RMK A01 T00191050  RH  060%=      5-min Rain = 0
KAM1 210727Z 22006KT 02/M05 A2993 RMK A01 T00191050  RH  060%=      5-min Rain = 0
KAM1 210728Z 22006KT 02/M05 A2993 RMK A01 T00191049  RH  060%=      5-min Rain = 0
KAM1 210729Z 22006KT 02/M05 A2993 RMK A01 T00191049  RH  060%=      5-min Rain = 0
KAM1 210730Z 21006KT 02/M05 A2993 RMK A01 T00201049  RH  060%=      5-min Rain = 0
KAM1 210731Z 21006KT 02/M05 A2993 RMK A01 T00211049  RH  060%=      5-min Rain = 0
KAM1 210732Z 21006KT 02/M05 A2993 RMK A01 T00211049  RH  060%=      5-min Rain = 0
KAM1 210733Z 21006KT 02/M05 A2993 RMK A01 T00211049  RH  060%=      5-min Rain = 0
KAM1 210734Z 21006KT 02/M05 A2993 RMK A01 T00221048  RH  060%=      5-min Rain = 0
KAM1 210735Z 21006KT 02/M05 A2993 RMK A01 T00221048  RH  060%=      5-min Rain = 0
KAM1 210736Z 21006KT 02/M05 A2993 RMK A01 T00221049  RH  060%=      5-min Rain = 0
KAM1 210737Z 21006KT 02/M05 A2993 RMK A01 T00221049  RH  060%=      5-min Rain = 0
KAM1 210738Z 21006KT 02/M05 A2993 RMK A01 T00221049  RH  059%=      5-min Rain = 0
KAM1 210739Z 21006KT 02/M05 A2993 RMK A01 T00221049  RH  059%=      5-min Rain = 0
KAM1 210740Z 21006KT 02/M05 A2993 RMK A01 T00221049  RH  059%=      5-min Rain = 0
KAM1 210741Z 21006KT 02/M05 A2993 RMK A01 T00221050  RH  059%=      5-min Rain = 0
KAM1 210742Z 21006KT 02/M05 A2993 RMK A01 T00221050  RH  059%=      5-min Rain = 0
KAM1 210743Z 21006KT 02/M05 A2993 RMK A01 T00221050  RH  059%=      5-min Rain = 0
KAM1 210744Z 22006KT 02/M05 A2993 RMK A01 T00231049  RH  059%=      5-min Rain = 0
KAM1 210745Z 22006KT 03/M05 A2993 RMK A01 T00251048  RH  059%=      5-min Rain = 0
KAM1 210746Z 22006KT 03/M05 A2993 RMK A01 T00261048  RH  058%=      5-min Rain = 0
KAM1 210747Z 22006KT 03/M05 A2993 RMK A01 T00261049  RH  058%=      5-min Rain = 0
KAM1 210748Z 22006KT 03/M05 A2993 RMK A01 T00251049  RH  058%=      5-min Rain = 0
KAM1 210749Z 22005KT 02/M05 A2993 RMK A01 T00241050  RH  058%=      5-min Rain = 0
KAM1 210750Z 22005KT 02/M05 A2993 RMK A01 T00231050  RH  059%=      5-min Rain = 0
KAM1 210751Z 21004KT 02/M05 A2993 RMK A01 T00221050  RH  059%=      5-min Rain = 0
KAM1 210752Z 21004KT 02/M05 A2993 RMK A01 T00221050  RH  059%=      5-min Rain = 0
KAM1 210753Z 20004KT 02/M05 A2992 RMK A01 T00221050  RH  059%=      5-min Rain = 0
KAM1 210754Z 19004KT 02/M05 A2992 RMK A01 T00221049  RH  059%=      5-min Rain = 0
KAM1 210755Z 19004KT 02/M05 A2992 RMK A01 T00221049  RH  059%=      5-min Rain = 0
KAM1 210756Z 19004KT 02/M05 A2992 RMK A01 T00241049  RH  059%=      5-min Rain = 0
KAM1 210757Z 19004KT 02/M05 A2992 RMK A01 T00241049  RH  059%=      5-min Rain = 0
KAM1 210758Z 19004KT 03/M05 A2992 RMK A01 T00251049  RH  058%=      5-min Rain = 0
KAM1 210759Z 19004KT 03/M05 A2992 RMK A01 T00251049  RH  058%=      5-min Rain = 0
KAM1 210800Z 19004KT 03/M05 A2991 RMK A01 T00261048  RH  058%=      5-min Rain = 0
KAM1 210801Z 20005KT 03/M05 A2991 RMK A01 T00261049  RH  058%=      5-min Rain = 0
KAM1 210802Z 19004KT 03/M05 A2991 RMK A01 T00261049  RH  058%=      5-min Rain = 0
KAM1 210803Z 19005KT 03/M05 A2991 RMK A01 T00261049  RH  058%=      5-min Rain = 0
KAM1 210804Z 19005KT 03/M05 A2991 RMK A01 T00261049  RH  058%=      5-min Rain = 0
KAM1 210805Z 19005KT 03/M05 A2991 RMK A01 T00251049  RH  058%=      5-min Rain = 0
KAM1 210806Z 19005KT 03/M05 A2991 RMK A01 T00251049  RH  058%=      5-min Rain = 0
KAM1 210807Z 19004KT 03/M05 A2991 RMK A01 T00251049  RH  058%=      5-min Rain = 0
KAM1 210808Z 19004KT 02/M05 A2991 RMK A01 T00241049  RH  058%=      5-min Rain = 0
KAM1 210809Z 19004KT 02/M05 A2991 RMK A01 T00241049  RH  058%=      5-min Rain = 0
KAM1 210810Z 19004KT 03/M05 A2991 RMK A01 T00251049  RH  058%=      5-min Rain = 0
KAM1 210811Z 19004KT 03/M05 A2991 RMK A01 T00251049  RH  058%=      5-min Rain = 0
KAM1 210812Z 19004KT 03/M05 A2991 RMK A01 T00251048  RH  058%=      5-min Rain = 0
KAM1 210813Z 20004KT 03/M05 A2991 RMK A01 T00261048  RH  058%=      5-min Rain = 0
KAM1 210814Z 19004KT 03/M05 A2991 RMK A01 T00271047  RH  058%=      5-min Rain = 0
KAM1 210815Z 20004KT 03/M05 A2991 RMK A01 T00281047  RH  058%=      5-min Rain = 0
KAM1 210816Z 20004KT 03/M05 A2991 RMK A01 T00291047  RH  058%=      5-min Rain = 0
KAM1 210817Z 21004KT 03/M05 A2991 RMK A01 T00291047  RH  057%=      5-min Rain = 0
KAM1 210818Z 21004KT 03/M05 A2991 RMK A01 T00301046  RH  057%=      5-min Rain = 0
KAM1 210819Z 21004KT 03/M05 A2991 RMK A01 T00311047  RH  057%=      5-min Rain = 0
KAM1 210820Z 21004KT 03/M05 A2991 RMK A01 T00321046  RH  056%=      5-min Rain = 0
KAM1 210821Z 20005KT 03/M05 A299 RMK A01 T00331046  RH  056%=      5-min Rain = 0
KAM1 210822Z 21005KT 03/M05 A299 RMK A01 T00341046  RH  056%=      5-min Rain = 0
KAM1 210823Z 20005KT 03/M05 A299 RMK A01 T00341047  RH  055%=      5-min Rain = 0
KAM1 210824Z 20004KT 04/M05 A299 RMK A01 T00351047  RH  055%=      5-min Rain = 0
KAM1 210825Z 20005KT 04/M05 A299 RMK A01 T00351047  RH  055%=      5-min Rain = 0
KAM1 210826Z 20005KT 04/M05 A299 RMK A01 T00351047  RH  055%=      5-min Rain = 0
KAM1 210827Z 20005KT 04/M05 A299 RMK A01 T00351047  RH  055%=      5-min Rain = 0
KAM1 210828Z 20005KT 04/M05 A299 RMK A01 T00351047  RH  055%=      5-min Rain = 0
KAM1 210829Z 19005KT 04/M05 A299 RMK A01 T00351047  RH  055%=      5-min Rain = 0
KAM1 210830Z 20005KT 03/M05 A299 RMK A01 T00341048  RH  055%=      5-min Rain = 0
KAM1 210831Z 20005KT 03/M05 A299 RMK A01 T00331048  RH  055%=      5-min Rain = 0
KAM1 210832Z 20005KT 03/M05 A299 RMK A01 T00321049  RH  055%=      5-min Rain = 0
KAM1 210833Z 20005KT 03/M05 A299 RMK A01 T00301050  RH  056%=      5-min Rain = 0
KAM1 210834Z 20006KT 03/M05 A299 RMK A01 T00281051  RH  056%=      5-min Rain = 0
KAM1 210835Z 20006KT 03/M05 A299 RMK A01 T00261052  RH  056%=      5-min Rain = 0
KAM1 210836Z 20006KT 02/M05 A299 RMK A01 T00241053  RH  057%=      5-min Rain = 0
KAM1 210837Z 21006KT 02/M05 A299 RMK A01 T00221053  RH  057%=      5-min Rain = 0
KAM1 210838Z 21006KT 02/M05 A299 RMK A01 T00211054  RH  058%=      5-min Rain = 0
KAM1 210839Z 21007KT 02/M05 A299 RMK A01 T00201054  RH  058%=      5-min Rain = 0
KAM1 210840Z 21007KT 02/M05 A299 RMK A01 T00201053  RH  058%=      5-min Rain = 0
KAM1 210841Z 21007KT 02/M05 A299 RMK A01 T00191053  RH  059%=      5-min Rain = 0
KAM1 210842Z 21008KT 02/M05 A299 RMK A01 T00181053  RH  059%=      5-min Rain = 0
KAM1 210843Z 21008KT 02/M05 A299 RMK A01 T00181053  RH  060%=      5-min Rain = 0
KAM1 210844Z 20009KT 02/M05 A299 RMK A01 T00171052  RH  060%=      5-min Rain = 0
KAM1 210845Z 20008KT 02/M05 A299 RMK A01 T00171052  RH  060%=      5-min Rain = 0
KAM1 210846Z 20008KT 02/M05 A299 RMK A01 T00181050  RH  061%=      5-min Rain = 0
KAM1 210847Z 20007KT 02/M05 A299 RMK A01 T00201048  RH  061%=      5-min Rain = 0
KAM1 210848Z 19007KT 02/M05 A299 RMK A01 T00211048  RH  060%=      5-min Rain = 0
KAM1 210849Z 19007KT 02/M05 A299 RMK A01 T00211047  RH  060%=      5-min Rain = 0
KAM1 210850Z 18006KT 02/M05 A299 RMK A01 T00201048  RH  061%=      5-min Rain = 0
KAM1 210851Z 18006KT 02/M05 A299 RMK A01 T00191049  RH  061%=      5-min Rain = 0
KAM1 210852Z 18007KT 02/M05 A299 RMK A01 T00171049  RH  061%=      5-min Rain = 0
KAM1 210853Z 18006KT 02/M05 A2989 RMK A01 T00151050  RH  062%=      5-min Rain = 0
KAM1 210854Z 18006KT 01/M05 A2989 RMK A01 T00141050  RH  062%=      5-min Rain = 0
KAM1 210855Z 18006KT 01/M05 A2989 RMK A01 T00131051  RH  062%=      5-min Rain = 0
KAM1 210856Z 18006KT 01/M05 A2989 RMK A01 T00121051  RH  063%=      5-min Rain = 0
KAM1 210857Z 18006KT 01/M05 A2989 RMK A01 T00121051  RH  063%=      5-min Rain = 0
KAM1 210858Z 19006KT 01/M05 A299 RMK A01 T00111051  RH  063%=      5-min Rain = 0
KAM1 210859Z 19006KT 01/M05 A299 RMK A01 T00111050  RH  064%=      5-min Rain = 0
KAM1 210900Z 19005KT 01/M05 A299 RMK A01 T00111050  RH  064%=      5-min Rain = 0
KAM1 210901Z 19005KT 01/M05 A2989 RMK A01 T00101051  RH  064%=      5-min Rain = 0
KAM1 210902Z 19005KT 01/M05 A2989 RMK A01 T00111050  RH  064%=      5-min Rain = 0
KAM1 210903Z 19005KT 01/M05 A2989 RMK A01 T00101051  RH  064%=      5-min Rain = 0
KAM1 210904Z 19005KT 01/M05 A2989 RMK A01 T00111050  RH  064%=      5-min Rain = 0
KAM1 210905Z 19005KT 01/M05 A2989 RMK A01 T00121049  RH  064%=      5-min Rain = 0
KAM1 210906Z 19006KT 01/M05 A2989 RMK A01 T00141049  RH  063%=      5-min Rain = 0
KAM1 210907Z 18006KT 02/M05 A2989 RMK A01 T00151049  RH  063%=      5-min Rain = 0
KAM1 210908Z 18007KT 02/M05 A2989 RMK A01 T00161050  RH  062%=      5-min Rain = 0
KAM1 210909Z 18007KT 01/M05 A2989 RMK A01 T00131053  RH  061%=      5-min Rain = 0
KAM1 210910Z 19008KT 01/M05 A2989 RMK A01 T00111054  RH  062%=      5-min Rain = 0
KAM1 210911Z 19008KT 01/M05 A2989 RMK A01 T00091054  RH  063%=      5-min Rain = 0
KAM1 210912Z 19008KT 01/M05 A2989 RMK A01 T00081054  RH  063%=      5-min Rain = 0
KAM1 210913Z 18008KT 01/M05 A2989 RMK A01 T00081054  RH  063%=      5-min Rain = 0
KAM1 210914Z 18008KT 01/M05 A2989 RMK A01 T00081054  RH  063%=      5-min Rain = 0
KAM1 210915Z 19008KT 01/M05 A2989 RMK A01 T00071054  RH  064%=      5-min Rain = 0
KAM1 210916Z 19007KT 01/M05 A2989 RMK A01 T00061054  RH  064%=      5-min Rain = 0
KAM1 210917Z 19007KT 01/M06 A2988 RMK A01 T00051055  RH  064%=      5-min Rain = 0
KAM1 210918Z 19007KT 00/M05 A2988 RMK A01 T00041054  RH  065%=      5-min Rain = 0
KAM1 210919Z 19008KT 00/M05 A2988 RMK A01 T00041054  RH  065%=      5-min Rain = 0
KAM1 210920Z 18008KT 01/M05 A2988 RMK A01 T00051054  RH  065%=      5-min Rain = 0
KAM1 210921Z 18008KT 01/M05 A2988 RMK A01 T00051054  RH  065%=      5-min Rain = 0
KAM1 210922Z 18007KT 00/M06 A2988 RMK A01 T00041055  RH  065%=      5-min Rain = 0
KAM1 210923Z 18007KT 00/M06 A2988 RMK A01 T00031055  RH  065%=      5-min Rain = 0
KAM1 210924Z 18007KT 00/M06 A2988 RMK A01 T00021056  RH  065%=      5-min Rain = 0
KAM1 210925Z 19007KT 00/06 A2988 RMK A01 T00000-56  RH  066%=      5-min Rain = 0
KAM1 210926Z 19007KT 00/06 A2988 RMK A01 T00000-55  RH  066%=      5-min Rain = 0
KAM1 210927Z 18006KT 00/M05 A2988 RMK A01 T00011054  RH  066%=      5-min Rain = 0
KAM1 210928Z 18006KT 00/M05 A2988 RMK A01 T00031054  RH  066%=      5-min Rain = 0
KAM1 210929Z 18007KT 00/M05 A2987 RMK A01 T00031054  RH  065%=      5-min Rain = 0
KAM1 210930Z 18006KT 00/M06 A2987 RMK A01 T00031055  RH  065%=      5-min Rain = 0
KAM1 210931Z 18007KT 00/M05 A2987 RMK A01 T00031054  RH  066%=      5-min Rain = 0
KAM1 210932Z 18008KT 00/M05 A2987 RMK A01 T00031053  RH  066%=      5-min Rain = 0
KAM1 210933Z 18008KT 00/M05 A2987 RMK A01 T00031053  RH  066%=      5-min Rain = 0
KAM1 210934Z 18008KT 00/M05 A2987 RMK A01 T00031053  RH  066%=      5-min Rain = 0
KAM1 210935Z 18008KT 00/M05 A2987 RMK A01 T00031053  RH  066%=      5-min Rain = 0
KAM1 210936Z 18008KT 00/M05 A2987 RMK A01 T00031052  RH  066%=      5-min Rain = 0
KAM1 210937Z 18008KT 00/M05 A2987 RMK A01 T00041051  RH  066%=      5-min Rain = 0
KAM1 210938Z 18008KT 01/M05 A2987 RMK A01 T00051050  RH  066%=      5-min Rain = 0
KAM1 210939Z 18008KT 01/M05 A2987 RMK A01 T00061050  RH  066%=      5-min Rain = 0
KAM1 210940Z 19008KT 01/M05 A2987 RMK A01 T00061050  RH  066%=      5-min Rain = 0
KAM1 210941Z 19008KT 01/M05 A2987 RMK A01 T00061050  RH  066%=      5-min Rain = 0
KAM1 210942Z 19008KT 01/M05 A2986 RMK A01 T00071049  RH  066%=      5-min Rain = 0
KAM1 210943Z 19008KT 01/M05 A2986 RMK A01 T00081049  RH  065%=      5-min Rain = 0
KAM1 210944Z 19008KT 01/M05 A2986 RMK A01 T00091049  RH  065%=      5-min Rain = 0
KAM1 210945Z 19007KT 01/M05 A2986 RMK A01 T00091049  RH  065%=      5-min Rain = 0
KAM1 210946Z 18007KT 01/M05 A2986 RMK A01 T00091049  RH  065%=      5-min Rain = 0
KAM1 210947Z 18008KT 01/M05 A2986 RMK A01 T00101049  RH  065%=      5-min Rain = 0
KAM1 210948Z 18008KT 01/M05 A2986 RMK A01 T00101049  RH  065%=      5-min Rain = 0
KAM1 210949Z 18007KT 01/M05 A2986 RMK A01 T00101049  RH  065%=      5-min Rain = 0
KAM1 210950Z 18007KT 01/M05 A2986 RMK A01 T00091050  RH  065%=      5-min Rain = 0
KAM1 210951Z 18007KT 01/M05 A2986 RMK A01 T00091050  RH  065%=      5-min Rain = 0
KAM1 210952Z 18008KT 01/M05 A2986 RMK A01 T00091049  RH  065%=      5-min Rain = 0
KAM1 210953Z 19008KT 01/M05 A2986 RMK A01 T00081049  RH  065%=      5-min Rain = 0
KAM1 210954Z 19008KT 01/M05 A2986 RMK A01 T00091049  RH  065%=      5-min Rain = 0
KAM1 210955Z 19007KT 01/M05 A2986 RMK A01 T00111048  RH  065%=      5-min Rain = 0
KAM1 210956Z 19007KT 01/M05 A2986 RMK A01 T00121048  RH  064%=      5-min Rain = 0
KAM1 210957Z 19007KT 01/M05 A2986 RMK A01 T00141047  RH  064%=      5-min Rain = 0
KAM1 210958Z 19007KT 02/M05 A2986 RMK A01 T00151047  RH  064%=      5-min Rain = 0
KAM1 210959Z 19007KT 02/M05 A2985 RMK A01 T00151047  RH  063%=      5-min Rain = 0
KAM1 211000Z 19006KT 02/M05 A2985 RMK A01 T00151047  RH  063%=      5-min Rain = 0
KAM1 211001Z 19007KT 02/M05 A2985 RMK A01 T00161047  RH  063%=      5-min Rain = 0
KAM1 211002Z 19006KT 02/M05 A2985 RMK A01 T00161047  RH  063%=      5-min Rain = 0
KAM1 211003Z 19006KT 02/M05 A2985 RMK A01 T00171047  RH  062%=      5-min Rain = 0
KAM1 211004Z 19006KT 02/M05 A2985 RMK A01 T00171047  RH  062%=      5-min Rain = 0
KAM1 211005Z 19006KT 02/M05 A2985 RMK A01 T00181047  RH  062%=      5-min Rain = 0
KAM1 211006Z 20006KT 02/M05 A2985 RMK A01 T00181047  RH  062%=      5-min Rain = 0
KAM1 211007Z 20006KT 02/M05 A2985 RMK A01 T00191047  RH  062%=      5-min Rain = 0
KAM1 211008Z 20006KT 02/M05 A2985 RMK A01 T00191047  RH  061%=      5-min Rain = 0
KAM1 211009Z 20006KT 02/M05 A2985 RMK A01 T00201047  RH  061%=      5-min Rain = 0
KAM1 211010Z 20006KT 02/M05 A2985 RMK A01 T00201048  RH  061%=      5-min Rain = 0
KAM1 211011Z 20006KT 02/M05 A2985 RMK A01 T00201048  RH  061%=      5-min Rain = 0
KAM1 211012Z 20006KT 02/M05 A2985 RMK A01 T00201048  RH  061%=      5-min Rain = 0
KAM1 211013Z 20006KT 02/M05 A2985 RMK A01 T00201048  RH  060%=      5-min Rain = 0
KAM1 211014Z 20006KT 02/M05 A2985 RMK A01 T00201049  RH  060%=      5-min Rain = 0
KAM1 211015Z 20006KT 02/M05 A2985 RMK A01 T00201049  RH  060%=      5-min Rain = 0
KAM1 211016Z 20006KT 02/M05 A2985 RMK A01 T00201049  RH  060%=      5-min Rain = 0
KAM1 211017Z 19006KT 02/M05 A2985 RMK A01 T00201050  RH  060%=      5-min Rain = 0
KAM1 211018Z 19006KT 02/M05 A2985 RMK A01 T00201050  RH  060%=      5-min Rain = 0
KAM1 211019Z 19006KT 02/M05 A2985 RMK A01 T00191050  RH  060%=      5-min Rain = 0
KAM1 211020Z 19006KT 02/M05 A2984 RMK A01 T00181050  RH  060%=      5-min Rain = 0
KAM1 211021Z 19006KT 02/M05 A2984 RMK A01 T00181051  RH  060%=      5-min Rain = 0
KAM1 211022Z 20006KT 02/M05 A2984 RMK A01 T00171051  RH  061%=      5-min Rain = 0
KAM1 211023Z 21006KT 02/M05 A2984 RMK A01 T00171051  RH  061%=      5-min Rain = 0
KAM1 211024Z 21006KT 02/M05 A2984 RMK A01 T00171050  RH  061%=      5-min Rain = 0
KAM1 211025Z 21006KT 02/M05 A2984 RMK A01 T00171050  RH  061%=      5-min Rain = 0
KAM1 211026Z 21006KT 02/M05 A2984 RMK A01 T00171051  RH  061%=      5-min Rain = 0
KAM1 211027Z 21006KT 02/M05 A2984 RMK A01 T00171051  RH  061%=      5-min Rain = 0
KAM1 211028Z 20006KT 02/M05 A2984 RMK A01 T00161051  RH  061%=      5-min Rain = 0
KAM1 211029Z 21006KT 02/M05 A2984 RMK A01 T00171050  RH  061%=      5-min Rain = 0
KAM1 211030Z 20006KT 02/M05 A2984 RMK A01 T00171051  RH  061%=      5-min Rain = 0
KAM1 211031Z 20005KT 02/M05 A2984 RMK A01 T00171051  RH  061%=      5-min Rain = 0
KAM1 211032Z 20006KT 02/M05 A2984 RMK A01 T00181051  RH  060%=      5-min Rain = 0
KAM1 211033Z 20005KT 02/M05 A2984 RMK A01 T00181051  RH  060%=      5-min Rain = 0
KAM1 211034Z 20005KT 02/M05 A2984 RMK A01 T00181051  RH  060%=      5-min Rain = 0
KAM1 211035Z 20006KT 02/M05 A2984 RMK A01 T00181052  RH  060%=      5-min Rain = 0
KAM1 211036Z 20005KT 02/M05 A2984 RMK A01 T00191051  RH  060%=      5-min Rain = 0
KAM1 211037Z 20005KT 02/M05 A2984 RMK A01 T00191052  RH  060%=      5-min Rain = 0
KAM1 211038Z 19005KT 02/M05 A2984 RMK A01 T00181052  RH  060%=      5-min Rain = 0
KAM1 211039Z 19005KT 02/M05 A2984 RMK A01 T00171053  RH  060%=      5-min Rain = 0
KAM1 211040Z 19006KT 02/M05 A2984 RMK A01 T00161053  RH  060%=      5-min Rain = 0
KAM1 211041Z 19006KT 02/M05 A2984 RMK A01 T00151053  RH  060%=      5-min Rain = 0
KAM1 211042Z 19006KT 02/M05 A2983 RMK A01 T00151053  RH  060%=      5-min Rain = 0
KAM1 211043Z 19005KT 02/M05 A2983 RMK A01 T00151052  RH  061%=      5-min Rain = 0
KAM1 211044Z 19005KT 02/M05 A2983 RMK A01 T00151052  RH  061%=      5-min Rain = 0
KAM1 211045Z 19005KT 01/M05 A2983 RMK A01 T00141052  RH  061%=      5-min Rain = 0
KAM1 211046Z 19005KT 01/M05 A2983 RMK A01 T00141052  RH  061%=      5-min Rain = 0
KAM1 211047Z 19005KT 01/M05 A2983 RMK A01 T00141052  RH  061%=      5-min Rain = 0
KAM1 211048Z 18005KT 01/M05 A2983 RMK A01 T00131052  RH  062%=      5-min Rain = 0
KAM1 211049Z 18005KT 01/M05 A2983 RMK A01 T00131053  RH  062%=      5-min Rain = 0
KAM1 211050Z 18005KT 01/M05 A2983 RMK A01 T00121053  RH  062%=      5-min Rain = 0
KAM1 211051Z 18005KT 01/M05 A2983 RMK A01 T00111053  RH  062%=      5-min Rain = 0
KAM1 211052Z 18005KT 01/M05 A2983 RMK A01 T00111053  RH  062%=      5-min Rain = 0
KAM1 211053Z 18005KT 01/M05 A2983 RMK A01 T00101053  RH  063%=      5-min Rain = 0
KAM1 211054Z 18006KT 01/M05 A2983 RMK A01 T00101053  RH  063%=      5-min Rain = 0
KAM1 211055Z 17007KT 01/M05 A2983 RMK A01 T00101053  RH  063%=      5-min Rain = 0
KAM1 211056Z 16007KT 01/M05 A2983 RMK A01 T00091054  RH  063%=      5-min Rain = 0
KAM1 211057Z 16008KT 01/M05 A2983 RMK A01 T00081054  RH  063%=      5-min Rain = 0
KAM1 211058Z 16008KT 01/M05 A2983 RMK A01 T00071054  RH  064%=      5-min Rain = 0
KAM1 211059Z 16008KT 01/M05 A2983 RMK A01 T00071053  RH  064%=      5-min Rain = 0
KAM1 211100Z 16008KT 01/M05 A2983 RMK A01 T00071052  RH  065%=      5-min Rain = 0
KAM1 211101Z 17008KT 01/M05 A2983 RMK A01 T00071052  RH  065%=      5-min Rain = 0
KAM1 211102Z 17007KT 01/M05 A2983 RMK A01 T00071051  RH  065%=      5-min Rain = 0
KAM1 211103Z 17007KT 01/M05 A2983 RMK A01 T00071051  RH  065%=      5-min Rain = 0
KAM1 211104Z 18006KT 01/M05 A2983 RMK A01 T00071051  RH  065%=      5-min Rain = 0
KAM1 211105Z 17006KT 01/M05 A2983 RMK A01 T00061052  RH  065%=      5-min Rain = 0
KAM1 211106Z 18007KT 01/M05 A2983 RMK A01 T00061052  RH  065%=      5-min Rain = 0
KAM1 211107Z 17007KT 01/M05 A2983 RMK A01 T00061052  RH  065%=      5-min Rain = 0
KAM1 211108Z 17007KT 01/M05 A2983 RMK A01 T00071051  RH  065%=      5-min Rain = 0
KAM1 211109Z 15007KT 01/M05 A2983 RMK A01 T00101050  RH  064%=      5-min Rain = 0
KAM1 211110Z 15008KT 01/M05 A2983 RMK A01 T00101051  RH  064%=      5-min Rain = 0
KAM1 211111Z 15007KT 01/M05 A2983 RMK A01 T00101050  RH  064%=      5-min Rain = 0
KAM1 211112Z 15007KT 01/M05 A2983 RMK A01 T00111050  RH  064%=      5-min Rain = 0
KAM1 211113Z 15005KT 01/M05 A2983 RMK A01 T00111049  RH  064%=      5-min Rain = 0
KAM1 211114Z 15005KT 01/M05 A2983 RMK A01 T00101049  RH  065%=      5-min Rain = 0
KAM1 211115Z 16006KT 01/M05 A2983 RMK A01 T00071050  RH  065%=      5-min Rain = 0
KAM1 211116Z 16006KT 01/M05 A2983 RMK A01 T00051051  RH  066%=      5-min Rain = 0
KAM1 211117Z 16006KT 01/M05 A2983 RMK A01 T00051051  RH  066%=      5-min Rain = 0
KAM1 211118Z 16005KT 01/M05 A2983 RMK A01 T00051051  RH  066%=      5-min Rain = 0
KAM1 211119Z 16004KT 01/M05 A2982 RMK A01 T00051050  RH  066%=      5-min Rain = 0
KAM1 211120Z 16004KT 01/M05 A2982 RMK A01 T00051050  RH  067%=      5-min Rain = 0
KAM1 211121Z 16004KT 00/M05 A2982 RMK A01 T00041052  RH  066%=      5-min Rain = 0
KAM1 211122Z 16004KT 00/M05 A2982 RMK A01 T00021052  RH  067%=      5-min Rain = 0
KAM1 211123Z 16004KT 00/M05 A2982 RMK A01 T00021051  RH  068%=      5-min Rain = 0
KAM1 211124Z 16004KT 00/M05 A2982 RMK A01 T00021050  RH  068%=      5-min Rain = 0
KAM1 211125Z 16004KT 00/M05 A2982 RMK A01 T00041049  RH  067%=      5-min Rain = 0
KAM1 211126Z 16004KT 01/M05 A2982 RMK A01 T00051049  RH  067%=      5-min Rain = 0
KAM1 211127Z 15004KT 01/M05 A2982 RMK A01 T00051050  RH  067%=      5-min Rain = 0
KAM1 211128Z 15004KT 01/M05 A2982 RMK A01 T00051050  RH  067%=      5-min Rain = 0
KAM1 211129Z 13004KT 00/M05 A2982 RMK A01 T00021054  RH  066%=      5-min Rain = 0
KAM1 211130Z 12005KT M00/M06 A2982 RMK A01 T10041059  RH  066%=      5-min Rain = 0
KAM1 211131Z 12005KT M01/M06 A2982 RMK A01 T10081059  RH  068%=      5-min Rain = 0
KAM1 211132Z 12005KT M01/M06 A2982 RMK A01 T10101058  RH  070%=      5-min Rain = 0
KAM1 211133Z 12005KT M01/M06 A2982 RMK A01 T10111057  RH  071%=      5-min Rain = 0
KAM1 211134Z 13005KT M01/M06 A2982 RMK A01 T10111056  RH  072%=      5-min Rain = 0
KAM1 211135Z 13005KT M01/M06 A2982 RMK A01 T10121056  RH  072%=      5-min Rain = 0
KAM1 211136Z 14006KT M01/M06 A2982 RMK A01 T10111055  RH  072%=      5-min Rain = 0
KAM1 211137Z 15006KT M01/M06 A2982 RMK A01 T10111055  RH  072%=      5-min Rain = 0
KAM1 211138Z 15007KT M01/M05 A2982 RMK A01 T10111054  RH  073%=      5-min Rain = 0
KAM1 211139Z 16007KT M01/M05 A2982 RMK A01 T10111054  RH  073%=      5-min Rain = 0
KAM1 211140Z 16007KT M01/M05 A2982 RMK A01 T10111053  RH  073%=      5-min Rain = 0
KAM1 211141Z 16006KT M01/M05 A2982 RMK A01 T10101052  RH  073%=      5-min Rain = 0
KAM1 211142Z 16006KT M01/M05 A2982 RMK A01 T10091051  RH  073%=      5-min Rain = 0
KAM1 211143Z 16006KT M01/M05 A2982 RMK A01 T10081051  RH  073%=      5-min Rain = 0
KAM1 211144Z 17006KT M01/M05 A2982 RMK A01 T10071050  RH  073%=      5-min Rain = 0
KAM1 211145Z 16006KT M01/M05 A2982 RMK A01 T10071050  RH  072%=      5-min Rain = 0
KAM1 211146Z 16006KT M01/M05 A2982 RMK A01 T10061050  RH  072%=      5-min Rain = 0
KAM1 211147Z 16006KT M01/M05 A2982 RMK A01 T10071051  RH  072%=      5-min Rain = 0
KAM1 211148Z 16006KT M01/M05 A2982 RMK A01 T10071051  RH  072%=      5-min Rain = 0
KAM1 211149Z 16006KT M01/M05 A2982 RMK A01 T10081052  RH  072%=      5-min Rain = 0
KAM1 211150Z 16008KT M01/M05 A2982 RMK A01 T10091052  RH  072%=      5-min Rain = 0
KAM1 211151Z 17008KT M01/M05 A2982 RMK A01 T10091052  RH  073%=      5-min Rain = 0
KAM1 211152Z 17008KT M01/M05 A2982 RMK A01 T10101052  RH  073%=      5-min Rain = 0
KAM1 211153Z 17009KT M01/M05 A2981 RMK A01 T10091051  RH  073%=      5-min Rain = 0
KAM1 211154Z 16009KT M01/M05 A2982 RMK A01 T10081050  RH  073%=      5-min Rain = 0
KAM1 211155Z 16010KT M01/M05 A2981 RMK A01 T10071049  RH  073%=      5-min Rain = 0
KAM1 211156Z 16009KT M00/M05 A2981 RMK A01 T10041047  RH  073%=      5-min Rain = 0
KAM1 211157Z 16008KT M00/M05 A2981 RMK A01 T10021045  RH  073%=      5-min Rain = 0
KAM1 211158Z 16008KT 00/04 A2981 RMK A01 T00000-44  RH  072%=      5-min Rain = 0
KAM1 211159Z 17008KT 00/M05 A2981 RMK A01 T00011045  RH  071%=      5-min Rain = 0
KAM1 211200Z 16009KT 00/M05 A2981 RMK A01 T00021045  RH  071%=      5-min Rain = 0
KAM1 211201Z 16009KT 00/M04 A2981 RMK A01 T00031044  RH  070%=      5-min Rain = 0
KAM1 211202Z 17009KT 00/M04 A2981 RMK A01 T00041044  RH  070%=      5-min Rain = 0
KAM1 211203Z 17008KT 00/M05 A2981 RMK A01 T00041045  RH  070%=      5-min Rain = 0
KAM1 211204Z 17008KT 00/M05 A2981 RMK A01 T00041045  RH  070%=      5-min Rain = 0
KAM1 211205Z 17008KT 00/M05 A2981 RMK A01 T00041045  RH  069%=      5-min Rain = 0
KAM1 211206Z 17007KT 00/M05 A2981 RMK A01 T00041045  RH  069%=      5-min Rain = 0
KAM1 211207Z 17008KT 00/M05 A2981 RMK A01 T00041045  RH  069%=      5-min Rain = 0
KAM1 211208Z 16008KT 00/M05 A2981 RMK A01 T00041046  RH  069%=      5-min Rain = 0
KAM1 211209Z 16008KT 00/M05 A2981 RMK A01 T00041046  RH  069%=      5-min Rain = 0
KAM1 211210Z 16008KT 00/M05 A2981 RMK A01 T00021047  RH  069%=      5-min Rain = 0
KAM1 211211Z 16008KT 00/M05 A2981 RMK A01 T00021047  RH  070%=      5-min Rain = 0
KAM1 211212Z 16008KT 00/M05 A2981 RMK A01 T00011048  RH  070%=      5-min Rain = 0
KAM1 211213Z 17008KT 00/05 A2981 RMK A01 T00-00-48  RH  070%=      5-min Rain = 0
KAM1 211214Z 17008KT M00/M05 A2981 RMK A01 T10011048  RH  070%=      5-min Rain = 0
KAM1 211215Z 17008KT M00/M05 A2981 RMK A01 T10021049  RH  071%=      5-min Rain = 0
KAM1 211216Z 17008KT M00/M05 A2981 RMK A01 T10021049  RH  071%=      5-min Rain = 0
KAM1 211217Z 17009KT M00/M05 A2981 RMK A01 T10021049  RH  071%=      5-min Rain = 0
KAM1 211218Z 17009KT M00/M05 A2981 RMK A01 T10021049  RH  071%=      5-min Rain = 0
KAM1 211219Z 17009KT M00/M05 A2981 RMK A01 T10021049  RH  071%=      5-min Rain = 0
KAM1 211220Z 17009KT M00/M05 A2981 RMK A01 T10021049  RH  071%=      5-min Rain = 0
KAM1 211221Z 18009KT M00/M05 A2981 RMK A01 T10021049  RH  071%=      5-min Rain = 0
KAM1 211222Z 18009KT M00/M05 A2981 RMK A01 T10011048  RH  070%=      5-min Rain = 0
KAM1 211223Z 18008KT 00/05 A2981 RMK A01 T00-00-48  RH  070%=      5-min Rain = 0
KAM1 211224Z 18008KT 00/05 A2981 RMK A01 T00000-48  RH  070%=      5-min Rain = 0
KAM1 211225Z 18008KT 00/M05 A2981 RMK A01 T00011048  RH  070%=      5-min Rain = 0
KAM1 211226Z 18008KT 00/M05 A2981 RMK A01 T00011048  RH  069%=      5-min Rain = 0
KAM1 211227Z 18007KT 00/M05 A2981 RMK A01 T00011048  RH  069%=      5-min Rain = 0
KAM1 211228Z 18007KT 00/M05 A2981 RMK A01 T00011049  RH  069%=      5-min Rain = 0
KAM1 211229Z 19007KT 00/05 A2981 RMK A01 T00000-49  RH  069%=      5-min Rain = 0
KAM1 211230Z 19007KT 00/05 A2981 RMK A01 T00-00-50  RH  069%=      5-min Rain = 0
KAM1 211231Z 19007KT M00/M05 A2981 RMK A01 T10011050  RH  070%=      5-min Rain = 0
KAM1 211232Z 19008KT M00/M05 A2981 RMK A01 T10011050  RH  070%=      5-min Rain = 0
KAM1 211233Z 19007KT M00/M05 A2982 RMK A01 T10011050  RH  070%=      5-min Rain = 0
KAM1 211234Z 19007KT M00/M05 A2982 RMK A01 T10021050  RH  070%=      5-min Rain = 0
KAM1 211235Z 19007KT M00/M05 A2982 RMK A01 T10021051  RH  070%=      5-min Rain = 0
KAM1 211236Z 19007KT M00/M05 A2982 RMK A01 T10031051  RH  070%=      5-min Rain = 0
KAM1 211237Z 19007KT M00/M05 A2982 RMK A01 T10031051  RH  070%=      5-min Rain = 0
KAM1 211238Z 19007KT M00/M05 A2982 RMK A01 T10041051  RH  070%=      5-min Rain = 0
KAM1 211239Z 19007KT M00/M05 A2982 RMK A01 T10041051  RH  070%=      5-min Rain = 0
KAM1 211240Z 19008KT M00/M05 A2982 RMK A01 T10041051  RH  071%=      5-min Rain = 0
KAM1 211241Z 19007KT M00/M05 A2982 RMK A01 T10041051  RH  071%=      5-min Rain = 0
KAM1 211242Z 20008KT M01/M05 A2982 RMK A01 T10051051  RH  071%=      5-min Rain = 0
KAM1 211243Z 20008KT M00/M05 A2982 RMK A01 T10041051  RH  071%=      5-min Rain = 0
KAM1 211244Z 20007KT M00/M05 A2982 RMK A01 T10031050  RH  071%=      5-min Rain = 0
KAM1 211245Z 20008KT M00/M05 A2982 RMK A01 T10021049  RH  071%=      5-min Rain = 0
KAM1 211246Z 20008KT M00/M05 A2982 RMK A01 T10011049  RH  070%=      5-min Rain = 0
KAM1 211247Z 20007KT 00/05 A2982 RMK A01 T00-00-49  RH  070%=      5-min Rain = 0
KAM1 211248Z 19007KT 00/M05 A2982 RMK A01 T00011048  RH  070%=      5-min Rain = 0
KAM1 211249Z 19007KT 00/M05 A2982 RMK A01 T00011048  RH  069%=      5-min Rain = 0
KAM1 211250Z 19008KT 00/M05 A2982 RMK A01 T00011049  RH  069%=      5-min Rain = 0
KAM1 211251Z 19008KT 00/05 A2982 RMK A01 T00000-49  RH  069%=      5-min Rain = 0
KAM1 211252Z 19008KT M00/M05 A2982 RMK A01 T10011050  RH  069%=      5-min Rain = 0
KAM1 211253Z 19009KT M00/M05 A2982 RMK A01 T10011050  RH  070%=      5-min Rain = 0
KAM1 211254Z 19008KT M00/M05 A2982 RMK A01 T10011050  RH  070%=      5-min Rain = 0
KAM1 211255Z 19008KT M00/M05 A2982 RMK A01 T10021050  RH  070%=      5-min Rain = 0
KAM1 211256Z 19008KT M00/M05 A2982 RMK A01 T10021050  RH  070%=      5-min Rain = 0
KAM1 211257Z 19007KT M00/M05 A2982 RMK A01 T10021050  RH  070%=      5-min Rain = 0
KAM1 211258Z 19008KT M00/M05 A2982 RMK A01 T10031050  RH  070%=      5-min Rain = 0
KAM1 211259Z 18008KT M00/M05 A2982 RMK A01 T10031050  RH  071%=      5-min Rain = 0
KAM1 211300Z 18008KT M00/M05 A2982 RMK A01 T10031050  RH  071%=      5-min Rain = 0
KAM1 211301Z 19008KT M00/M05 A2982 RMK A01 T10031050  RH  071%=      5-min Rain = 0
KAM1 211302Z 19008KT M00/M05 A2982 RMK A01 T10031050  RH  071%=      5-min Rain = 0
KAM1 211303Z 19008KT M00/M05 A2982 RMK A01 T10041050  RH  071%=      5-min Rain = 0
KAM1 211304Z 19008KT M00/M05 A2982 RMK A01 T10041050  RH  071%=      5-min Rain = 0
KAM1 211305Z 19008KT M01/M05 A2981 RMK A01 T10051051  RH  071%=      5-min Rain = 0
KAM1 211306Z 20007KT M01/M05 A2982 RMK A01 T10051050  RH  071%=      5-min Rain = 0
KAM1 211307Z 19007KT M01/M05 A2982 RMK A01 T10051051  RH  071%=      5-min Rain = 0
KAM1 211308Z 19007KT M01/M05 A2982 RMK A01 T10061051  RH  071%=      5-min Rain = 0
KAM1 211309Z 19008KT M01/M05 A2982 RMK A01 T10061052  RH  071%=      5-min Rain = 0
KAM1 211310Z 19008KT M01/M05 A2982 RMK A01 T10071052  RH  072%=      5-min Rain = 0
KAM1 211311Z 19008KT M01/M05 A2982 RMK A01 T10081052  RH  072%=      5-min Rain = 0
KAM1 211312Z 19008KT M01/M05 A2982 RMK A01 T10091052  RH  072%=      5-min Rain = 0
KAM1 211313Z 18008KT M01/M05 A2982 RMK A01 T10091052  RH  073%=      5-min Rain = 0
KAM1 211314Z 19008KT M01/M05 A2982 RMK A01 T10101052  RH  073%=      5-min Rain = 0
KAM1 211315Z 19007KT M01/M05 A2982 RMK A01 T10101053  RH  073%=      5-min Rain = 0
KAM1 211316Z 19008KT M01/M05 A2982 RMK A01 T10111053  RH  073%=      5-min Rain = 0
KAM1 211317Z 19008KT M01/M05 A2982 RMK A01 T10101052  RH  073%=      5-min Rain = 0
KAM1 211318Z 19008KT M01/M05 A2982 RMK A01 T10111052  RH  073%=      5-min Rain = 0
KAM1 211319Z 19008KT M01/M05 A2982 RMK A01 T10101052  RH  073%=      5-min Rain = 0
KAM1 211320Z 19008KT M01/M05 A2982 RMK A01 T10091051  RH  073%=      5-min Rain = 0
KAM1 211321Z 19008KT M01/M05 A2982 RMK A01 T10071049  RH  073%=      5-min Rain = 0
KAM1 211322Z 19008KT M01/M05 A2982 RMK A01 T10051048  RH  073%=      5-min Rain = 0
KAM1 211323Z 19007KT M01/M05 A2982 RMK A01 T10051049  RH  072%=      5-min Rain = 0
KAM1 211324Z 19007KT M01/M05 A2982 RMK A01 T10051049  RH  072%=      5-min Rain = 0
KAM1 211325Z 18007KT M01/M05 A2982 RMK A01 T10051049  RH  072%=      5-min Rain = 0
KAM1 211326Z 18007KT M01/M05 A2981 RMK A01 T10051050  RH  072%=      5-min Rain = 0
KAM1 211327Z 18007KT M01/M05 A2981 RMK A01 T10051050  RH  072%=      5-min Rain = 0
KAM1 211328Z 19007KT M01/M05 A2981 RMK A01 T10061051  RH  071%=      5-min Rain = 0
KAM1 211329Z 19007KT M01/M05 A2981 RMK A01 T10061052  RH  071%=      5-min Rain = 0
KAM1 211330Z 19008KT M01/M05 A2981 RMK A01 T10061052  RH  071%=      5-min Rain = 0
KAM1 211331Z 19008KT M01/M05 A2981 RMK A01 T10051051  RH  071%=      5-min Rain = 0
KAM1 211332Z 19008KT M00/M05 A2981 RMK A01 T10031051  RH  070%=      5-min Rain = 0
KAM1 211333Z 19008KT M00/M05 A2981 RMK A01 T10021050  RH  070%=      5-min Rain = 0
KAM1 211334Z 19007KT M00/M05 A2981 RMK A01 T10021050  RH  070%=      5-min Rain = 0
KAM1 211335Z 19007KT M00/M05 A2981 RMK A01 T10021051  RH  070%=      5-min Rain = 0
KAM1 211336Z 19007KT M00/M05 A2981 RMK A01 T10011051  RH  069%=      5-min Rain = 0
KAM1 211337Z 20008KT M00/M05 A2981 RMK A01 T10011051  RH  069%=      5-min Rain = 0
KAM1 211338Z 20007KT M00/M05 A2981 RMK A01 T10011051  RH  069%=      5-min Rain = 0
KAM1 211339Z 20008KT M00/M05 A2981 RMK A01 T10011051  RH  069%=      5-min Rain = 0
KAM1 211340Z 20007KT 00/05 A2981 RMK A01 T00-00-50  RH  069%=      5-min Rain = 0
KAM1 211341Z 20008KT 00/05 A2981 RMK A01 T00000-50  RH  069%=      5-min Rain = 0
KAM1 211342Z 20008KT 00/M05 A2981 RMK A01 T00021049  RH  069%=      5-min Rain = 0
KAM1 211343Z 20009KT 00/M05 A2981 RMK A01 T00031049  RH  068%=      5-min Rain = 0
KAM1 211344Z 20008KT 00/M05 A2981 RMK A01 T00041049  RH  068%=      5-min Rain = 0
KAM1 211345Z 20009KT 01/M05 A2981 RMK A01 T00051048  RH  068%=      5-min Rain = 0
KAM1 211346Z 20009KT 01/M05 A2981 RMK A01 T00051048  RH  067%=      5-min Rain = 0
KAM1 211347Z 20010KT 01/M05 A2981 RMK A01 T00061048  RH  067%=      5-min Rain = 0
KAM1 211348Z 20010KT 01/M05 A2981 RMK A01 T00061048  RH  067%=      5-min Rain = 0
KAM1 211349Z 20010KT 01/M05 A2981 RMK A01 T00061048  RH  067%=      5-min Rain = 0
KAM1 211350Z 20010KT 01/M05 A2981 RMK A01 T00071048  RH  067%=      5-min Rain = 0
KAM1 211351Z 20010KT 01/M05 A298 RMK A01 T00081047  RH  067%=      5-min Rain = 0
KAM1 211352Z 20010KT 01/M05 A298 RMK A01 T00081047  RH  067%=      5-min Rain = 0
KAM1 211353Z 20009KT 01/M05 A298 RMK A01 T00081047  RH  066%=      5-min Rain = 0
KAM1 211354Z 20009KT 01/M05 A298 RMK A01 T00081047  RH  066%=      5-min Rain = 0
KAM1 211355Z 20009KT 01/M05 A298 RMK A01 T00081048  RH  066%=      5-min Rain = 0
KAM1 211356Z 20009KT 01/M05 A298 RMK A01 T00081048  RH  066%=      5-min Rain = 0
KAM1 211357Z 20009KT 01/M05 A298 RMK A01 T00081048  RH  066%=      5-min Rain = 0
KAM1 211358Z 20009KT 01/M05 A298 RMK A01 T00071048  RH  066%=      5-min Rain = 0
KAM1 211359Z 20009KT 01/M05 A298 RMK A01 T00071049  RH  066%=      5-min Rain = 0
KAM1 211400Z 20009KT 01/M05 A298 RMK A01 T00061049  RH  067%=      5-min Rain = 0
KAM1 211401Z 19009KT 01/M05 A298 RMK A01 T00061049  RH  067%=      5-min Rain = 0
KAM1 211402Z 20009KT 01/M05 A298 RMK A01 T00051049  RH  067%=      5-min Rain = 0
KAM1 211403Z 20009KT 01/M05 A298 RMK A01 T00051050  RH  067%=      5-min Rain = 0
KAM1 211404Z 20009KT 01/M05 A298 RMK A01 T00051050  RH  067%=      5-min Rain = 0
KAM1 211405Z 20009KT 01/M05 A298 RMK A01 T00051050  RH  067%=      5-min Rain = 0
KAM1 211406Z 20010KT 01/M05 A298 RMK A01 T00051050  RH  067%=      5-min Rain = 0
KAM1 211407Z 20010KT 01/M05 A298 RMK A01 T00061050  RH  067%=      5-min Rain = 0
KAM1 211408Z 20009KT 01/M05 A298 RMK A01 T00061049  RH  066%=      5-min Rain = 0
KAM1 211409Z 20009KT 01/M05 A298 RMK A01 T00071049  RH  066%=      5-min Rain = 0
KAM1 211410Z 21009KT 01/M05 A298 RMK A01 T00071049  RH  066%=      5-min Rain = 0
KAM1 211411Z 20008KT 01/M05 A298 RMK A01 T00071049  RH  066%=      5-min Rain = 0
KAM1 211412Z 21008KT 01/M05 A298 RMK A01 T00081049  RH  066%=      5-min Rain = 0
KAM1 211413Z 21008KT 01/M05 A298 RMK A01 T00081049  RH  066%=      5-min Rain = 0
KAM1 211414Z 21008KT 01/M05 A298 RMK A01 T00091049  RH  065%=      5-min Rain = 0
KAM1 211415Z 21007KT 01/M05 A2981 RMK A01 T00101049  RH  065%=      5-min Rain = 0
KAM1 211416Z 21007KT 01/M05 A2981 RMK A01 T00101049  RH  065%=      5-min Rain = 0
KAM1 211417Z 21007KT 01/M05 A2981 RMK A01 T00101049  RH  065%=      5-min Rain = 0
KAM1 211418Z 22006KT 01/M05 A2981 RMK A01 T00101049  RH  065%=      5-min Rain = 0
KAM1 211419Z 22007KT 01/M05 A2981 RMK A01 T00101049  RH  065%=      5-min Rain = 0
KAM1 211420Z 22007KT 01/M05 A2981 RMK A01 T00101049  RH  065%=      5-min Rain = 0
KAM1 211421Z 22007KT 01/M05 A2981 RMK A01 T00101049  RH  065%=      5-min Rain = 0
KAM1 211422Z 22007KT 01/M05 A2981 RMK A01 T00101049  RH  065%=      5-min Rain = 0
KAM1 211423Z 22007KT 01/M05 A2981 RMK A01 T00101049  RH  065%=      5-min Rain = 0
KAM1 211424Z 22007KT 01/M05 A2981 RMK A01 T00101049  RH  065%=      5-min Rain = 0
KAM1 211425Z 22006KT 01/M05 A2981 RMK A01 T00101049  RH  065%=      5-min Rain = 0
KAM1 211426Z 22007KT 01/M05 A2981 RMK A01 T00091050  RH  065%=      5-min Rain = 0
KAM1 211427Z 22007KT 01/M05 A2981 RMK A01 T00091050  RH  065%=      5-min Rain = 0
KAM1 211428Z 21007KT 01/M05 A2981 RMK A01 T00091050  RH  065%=      5-min Rain = 0
KAM1 211429Z 21007KT 01/M05 A2981 RMK A01 T00081050  RH  065%=      5-min Rain = 0
KAM1 211430Z 22007KT 01/M05 A2981 RMK A01 T00081050  RH  065%=      5-min Rain = 0
KAM1 211431Z 22007KT 01/M05 A2981 RMK A01 T00071050  RH  065%=      5-min Rain = 0
KAM1 211432Z 22007KT 01/M05 A2981 RMK A01 T00061050  RH  066%=      5-min Rain = 0
KAM1 211433Z 22007KT 01/M05 A2981 RMK A01 T00061051  RH  066%=      5-min Rain = 0
KAM1 211434Z 22007KT 01/M05 A2981 RMK A01 T00051051  RH  066%=      5-min Rain = 0
KAM1 211435Z 22007KT 00/M05 A2981 RMK A01 T00041051  RH  067%=      5-min Rain = 0
KAM1 211436Z 21007KT 00/M05 A298 RMK A01 T00031051  RH  067%=      5-min Rain = 0
KAM1 211437Z 21008KT 00/M05 A298 RMK A01 T00031050  RH  067%=      5-min Rain = 0
KAM1 211438Z 21009KT 00/M05 A298 RMK A01 T00031050  RH  068%=      5-min Rain = 0
KAM1 211439Z 21009KT 00/M05 A298 RMK A01 T00031049  RH  068%=      5-min Rain = 0
KAM1 211440Z 21009KT 00/M05 A298 RMK A01 T00031049  RH  068%=      5-min Rain = 0
KAM1 211441Z 21009KT 00/M05 A298 RMK A01 T00041049  RH  068%=      5-min Rain = 0
KAM1 211442Z 21009KT 01/M05 A298 RMK A01 T00051048  RH  068%=      5-min Rain = 0
KAM1 211443Z 21008KT 01/M05 A298 RMK A01 T00051048  RH  068%=      5-min Rain = 0
KAM1 211444Z 21008KT 01/M05 A298 RMK A01 T00061047  RH  067%=      5-min Rain = 0
KAM1 211445Z 21007KT 01/M05 A298 RMK A01 T00071047  RH  067%=      5-min Rain = 0
KAM1 211446Z 21007KT 01/M05 A298 RMK A01 T00071047  RH  067%=      5-min Rain = 0
KAM1 211447Z 21008KT 01/M05 A298 RMK A01 T00071048  RH  067%=      5-min Rain = 0
KAM1 211448Z 22008KT 01/M05 A298 RMK A01 T00071048  RH  067%=      5-min Rain = 0
KAM1 211449Z 22008KT 01/M05 A298 RMK A01 T00081047  RH  067%=      5-min Rain = 0
KAM1 211450Z 22008KT 01/M05 A298 RMK A01 T00081047  RH  067%=      5-min Rain = 0
KAM1 211451Z 22008KT 01/M05 A298 RMK A01 T00091046  RH  066%=      5-min Rain = 0
KAM1 211452Z 22008KT 01/M05 A298 RMK A01 T00101045  RH  066%=      5-min Rain = 0
KAM1 211453Z 22007KT 01/M05 A298 RMK A01 T00111045  RH  066%=      5-min Rain = 0
KAM1 211454Z 22007KT 01/M05 A298 RMK A01 T00121045  RH  066%=      5-min Rain = 0
KAM1 211455Z 23007KT 01/M04 A298 RMK A01 T00141044  RH  065%=      5-min Rain = 0
KAM1 211456Z 23007KT 02/M04 A298 RMK A01 T00151044  RH  065%=      5-min Rain = 0
KAM1 211457Z 23007KT 02/M04 A298 RMK A01 T00161044  RH  065%=      5-min Rain = 0
KAM1 211458Z 23007KT 02/M04 A298 RMK A01 T00161043  RH  065%=      5-min Rain = 0
KAM1 211459Z 23007KT 02/M04 A298 RMK A01 T00171043  RH  064%=      5-min Rain = 0
KAM1 211500Z 23007KT 02/M04 A298 RMK A01 T00181042  RH  064%=      5-min Rain = 0
KAM1 211501Z 23007KT 02/M04 A298 RMK A01 T00191042  RH  064%=      5-min Rain = 0
KAM1 211502Z 23007KT 02/M04 A298 RMK A01 T00201041  RH  064%=      5-min Rain = 0
KAM1 211503Z 23007KT 02/M04 A298 RMK A01 T00211041  RH  064%=      5-min Rain = 0
KAM1 211504Z 23007KT 02/M04 A298 RMK A01 T00221041  RH  063%=      5-min Rain = 0
KAM1 211505Z 23007KT 02/M04 A2979 RMK A01 T00221041  RH  063%=      5-min Rain = 0
KAM1 211506Z 23007KT 02/M04 A2979 RMK A01 T00231041  RH  063%=      5-min Rain = 0
KAM1 211507Z 23007KT 02/M04 A2979 RMK A01 T00231041  RH  063%=      5-min Rain = 0
KAM1 211508Z 23007KT 02/M04 A2979 RMK A01 T00241040  RH  063%=      5-min Rain = 0
KAM1 211509Z 24007KT 02/M04 A298 RMK A01 T00241040  RH  063%=      5-min Rain = 0
KAM1 211510Z 24006KT 03/M04 A298 RMK A01 T00251039  RH  063%=      5-min Rain = 0
KAM1 211511Z 24006KT 03/M04 A2979 RMK A01 T00261038  RH  063%=      5-min Rain = 0
KAM1 211512Z 23006KT 03/M04 A2979 RMK A01 T00271038  RH  062%=      5-min Rain = 0
KAM1 211513Z 24006KT 03/M04 A2979 RMK A01 T00281037  RH  062%=      5-min Rain = 0
KAM1 211514Z 23006KT 03/M04 A2979 RMK A01 T00281037  RH  062%=      5-min Rain = 0
KAM1 211515Z 23005KT 03/M04 A2979 RMK A01 T00291037  RH  062%=      5-min Rain = 0
KAM1 211516Z 23007KT 03/M04 A2979 RMK A01 T00301036  RH  062%=      5-min Rain = 0
KAM1 211517Z 23006KT 03/M04 A2979 RMK A01 T00321036  RH  061%=      5-min Rain = 0
KAM1 211518Z 23006KT 03/M04 A2979 RMK A01 T00331036  RH  061%=      5-min Rain = 0
KAM1 211519Z 23006KT 03/M04 A2979 RMK A01 T00341035  RH  060%=      5-min Rain = 0
KAM1 211520Z 23007KT 04/M04 A2979 RMK A01 T00361035  RH  060%=      5-min Rain = 0
KAM1 211521Z 23007KT 04/M04 A2979 RMK A01 T00371035  RH  059%=      5-min Rain = 0
KAM1 211522Z 23007KT 04/M04 A2979 RMK A01 T00391035  RH  058%=      5-min Rain = 0
KAM1 211523Z 24006KT 04/M03 A2979 RMK A01 T00431033  RH  058%=      5-min Rain = 0
KAM1 211524Z 23006KT 05/M03 A2979 RMK A01 T00451033  RH  057%=      5-min Rain = 0
KAM1 211525Z 24007KT 05/M03 A2979 RMK A01 T00471032  RH  057%=      5-min Rain = 0
KAM1 211526Z 24007KT 05/M03 A2979 RMK A01 T00501031  RH  056%=      5-min Rain = 0
KAM1 211527Z 24007KT 05/M03 A2979 RMK A01 T00521031  RH  055%=      5-min Rain = 0
KAM1 211528Z 24008KT 05/M03 A2979 RMK A01 T00541031  RH  054%=      5-min Rain = 0
KAM1 211529Z 23007KT 06/M03 A2979 RMK A01 T00551030  RH  054%=      5-min Rain = 0
KAM1 211530Z 23008KT 06/M03 A2979 RMK A01 T00571030  RH  053%=      5-min Rain = 0
KAM1 211531Z 24008KT 06/M03 A2979 RMK A01 T00581031  RH  053%=      5-min Rain = 0
KAM1 211532Z 23008KT 06/M03 A2979 RMK A01 T00591030  RH  053%=      5-min Rain = 0
KAM1 211533Z 22006KT 06/M03 A2979 RMK A01 T00621027  RH  053%=      5-min Rain = 0
KAM1 211534Z 23008KT 06/M03 A2979 RMK A01 T00641028  RH  052%=      5-min Rain = 0
KAM1 211535Z 23008KT 07/M03 A2979 RMK A01 T00651028  RH  051%=      5-min Rain = 0
KAM1 211536Z 22007KT 07/M03 A2979 RMK A01 T00671027  RH  051%=      5-min Rain = 0
KAM1 211537Z 22008KT 07/M03 A2979 RMK A01 T00691025  RH  051%=      5-min Rain = 0
KAM1 211538Z 22009KT 07/M03 A2978 RMK A01 T00701029  RH  049%=      5-min Rain = 0
KAM1 211539Z 22008KT 07/M03 A2978 RMK A01 T00701029  RH  049%=      5-min Rain = 0
KAM1 211540Z 22010KT 07/M03 A2978 RMK A01 T00711029  RH  049%=      5-min Rain = 0
KAM1 211541Z 22010KT 07/M03 A2978 RMK A01 T00711031  RH  048%=      5-min Rain = 0
KAM1 211542Z 22011KT 07/M03 A2978 RMK A01 T00721031  RH  048%=      5-min Rain = 0
KAM1 211543Z 22009KT 07/M03 A2978 RMK A01 T00721031  RH  048%=      5-min Rain = 0
KAM1 211544Z 22008KT 07/M03 A2978 RMK A01 T00711032  RH  048%=      5-min Rain = 0
KAM1 211545Z 21009KT 07/M03 A2978 RMK A01 T00711032  RH  048%=      5-min Rain = 0
KAM1 211546Z 22009KT 07/M03 A2978 RMK A01 T00721033  RH  047%=      5-min Rain = 0
KAM1 211547Z 21008KT 07/M03 A2978 RMK A01 T00721033  RH  047%=      5-min Rain = 0
KAM1 211548Z 21010KT 07/M03 A2978 RMK A01 T00731031  RH  048%=      5-min Rain = 0
KAM1 211549Z 21011KT 07/M03 A2978 RMK A01 T00731032  RH  047%=      5-min Rain = 0
KAM1 211550Z 21012KT 07/M03 A2978 RMK A01 T00741033  RH  047%=      5-min Rain = 0
KAM1 211551Z 22012KT 08/M03 A2978 RMK A01 T00761033  RH  046%=      5-min Rain = 0
KAM1 211552Z 22011KT 08/M03 A2978 RMK A01 T00771032  RH  046%=      5-min Rain = 0
KAM1 211553Z 22012KT 08/M03 A2978 RMK A01 T00791032  RH  045%=      5-min Rain = 0
KAM1 211554Z 22010KT 08/M03 A2978 RMK A01 T00791033  RH  045%=      5-min Rain = 0
KAM1 211555Z 22011KT 08/M03 A2978 RMK A01 T00801032  RH  045%=      5-min Rain = 0
KAM1 211556Z 23011KT 08/M03 A2978 RMK A01 T00811032  RH  045%=      5-min Rain = 0
KAM1 211557Z 22012KT 08/M03 A2978 RMK A01 T00821032  RH  045%=      5-min Rain = 0
KAM1 211558Z 22012KT 08/M03 A2978 RMK A01 T00821033  RH  044%=      5-min Rain = 0
KAM1 211559Z 23012KT 08/M03 A2978 RMK A01 T00821033  RH  044%=      5-min Rain = 0
KAM1 211600Z 23012KT 08/M03 A2978 RMK A01 T00841032  RH  044%=      5-min Rain = 0
KAM1 211601Z 22012KT 09/M03 A2978 RMK A01 T00871031  RH  043%=      5-min Rain = 0
KAM1 211602Z 22012KT 09/M03 A2978 RMK A01 T00891031  RH  043%=      5-min Rain = 0
KAM1 211603Z 23014KT 09/M03 A2978 RMK A01 T00911033  RH  041%=      5-min Rain = 0
KAM1 211604Z 23013KT 09/M04 A2978 RMK A01 T00911035  RH  041%=      5-min Rain = 0
KAM1 211605Z 23014KT 09/M04 A2978 RMK A01 T00921037  RH  040%=      5-min Rain = 0
KAM1 211606Z 23015KT 09/M04 A2978 RMK A01 T00921037  RH  040%=      5-min Rain = 0
KAM1 211607Z 23015KT 09/M04 A2978 RMK A01 T00921038  RH  040%=      5-min Rain = 0
KAM1 211608Z 23014KT 09/M04 A2978 RMK A01 T00921039  RH  040%=      5-min Rain = 0
KAM1 211609Z 23013KT 09/M04 A2978 RMK A01 T00921038  RH  040%=      5-min Rain = 0
KAM1 211610Z 23014KT 09/M04 A2978 RMK A01 T00931037  RH  040%=      5-min Rain = 0
KAM1 211611Z 23012KT 09/M04 A2978 RMK A01 T00931037  RH  040%=      5-min Rain = 0
KAM1 211612Z 23012KT 09/M04 A2978 RMK A01 T00941036  RH  040%=      5-min Rain = 0
KAM1 211613Z 23013G18KT 10/M04 A2978 RMK A01 T00961035  RH  040%=      5-min Rain = 0
KAM1 211614Z 23014KT 10/M04 A2978 RMK A01 T00971036  RH  039%=      5-min Rain = 0
KAM1 211615Z 23014KT 10/M04 A2978 RMK A01 T00991036  RH  039%=      5-min Rain = 0
KAM1 211616Z 23014KT 10/M04 A2978 RMK A01 T01001036  RH  038%=      5-min Rain = 0
KAM1 211617Z 23012KT 10/M03 A2978 RMK A01 T01031033  RH  038%=      5-min Rain = 0
KAM1 211618Z 23014KT 11/M03 A2978 RMK A01 T01071031  RH  038%=      5-min Rain = 0
KAM1 211619Z 23014KT 11/M03 A2978 RMK A01 T01101032  RH  037%=      5-min Rain = 0
KAM1 211620Z 22013KT 11/M03 A2978 RMK A01 T01101034  RH  036%=      5-min Rain = 0
KAM1 211621Z 22015KT 11/M04 A2978 RMK A01 T01111035  RH  036%=      5-min Rain = 0
KAM1 211622Z 22013KT 11/M04 A2978 RMK A01 T01101037  RH  036%=      5-min Rain = 0
KAM1 211623Z 23016KT 11/M04 A2977 RMK A01 T01101038  RH  035%=      5-min Rain = 0
KAM1 211624Z 22014KT 11/M04 A2977 RMK A01 T01091039  RH  035%=      5-min Rain = 0
KAM1 211625Z 22014G19KT 11/M04 A2977 RMK A01 T01101038  RH  035%=      5-min Rain = 0
KAM1 211626Z 22014KT 11/M04 A2977 RMK A01 T01121037  RH  035%=      5-min Rain = 0
KAM1 211627Z 23012KT 12/M04 A2977 RMK A01 T01151037  RH  034%=      5-min Rain = 0
KAM1 211628Z 23017KT 12/M04 A2977 RMK A01 T01171036  RH  034%=      5-min Rain = 0
KAM1 211629Z 23016KT 12/M04 A2977 RMK A01 T01171039  RH  033%=      5-min Rain = 0
KAM1 211630Z 23016KT 12/M04 A2977 RMK A01 T01171040  RH  033%=      5-min Rain = 0
KAM1 211631Z 23014KT 12/M04 A2977 RMK A01 T01171041  RH  033%=      5-min Rain = 0
KAM1 211632Z 23018KT 12/M04 A2977 RMK A01 T01171040  RH  033%=      5-min Rain = 0
KAM1 211633Z 23017G22KT 12/M04 A2977 RMK A01 T01181039  RH  033%=      5-min Rain = 0
KAM1 211634Z 23019KT 12/M04 A2977 RMK A01 T01181042  RH  032%=      5-min Rain = 0
KAM1 211635Z 23016G22KT 12/M04 A2977 RMK A01 T01181042  RH  033%=      5-min Rain = 0
KAM1 211636Z 23016KT 12/M04 A2977 RMK A01 T01181041  RH  033%=      5-min Rain = 0
KAM1 211637Z 23014KT 12/M04 A2977 RMK A01 T01201039  RH  033%=      5-min Rain = 0
KAM1 211638Z 23014KT 12/M03 A2977 RMK A01 T01241034  RH  033%=      5-min Rain = 0
KAM1 211639Z 23018G23KT 13/M04 A2977 RMK A01 T01281035  RH  032%=      5-min Rain = 0
KAM1 211640Z 23020KT 13/M04 A2977 RMK A01 T01281040  RH  031%=      5-min Rain = 0
KAM1 211641Z 23020KT 13/M04 A2977 RMK A01 T01261042  RH  031%=      5-min Rain = 0
KAM1 211642Z 23017KT 13/M04 A2977 RMK A01 T01251042  RH  031%=      5-min Rain = 0
KAM1 211643Z 22017KT 13/M04 A2977 RMK A01 T01251041  RH  031%=      5-min Rain = 0
KAM1 211644Z 23020KT 13/M04 A2977 RMK A01 T01251043  RH  031%=      5-min Rain = 0
KAM1 211645Z 22021G26KT 12/M05 A2977 RMK A01 T01241047  RH  030%=      5-min Rain = 0
KAM1 211646Z 22022KT 12/M05 A2977 RMK A01 T01231047  RH  030%=      5-min Rain = 0
KAM1 211647Z 23020G25KT 12/M05 A2977 RMK A01 T01231048  RH  030%=      5-min Rain = 0
KAM1 211648Z 22018KT 12/M05 A2977 RMK A01 T01241045  RH  031%=      5-min Rain = 0
KAM1 211649Z 23019KT 13/M04 A2977 RMK A01 T01261044  RH  030%=      5-min Rain = 0
KAM1 211650Z 23020KT 13/M04 A2977 RMK A01 T01271044  RH  030%=      5-min Rain = 0
KAM1 211651Z 23019KT 13/M04 A2977 RMK A01 T01281044  RH  030%=      5-min Rain = 0
KAM1 211652Z 23023KT 13/M04 A2977 RMK A01 T01291042  RH  030%=      5-min Rain = 0
KAM1 211653Z 23022G27KT 13/M05 A2977 RMK A01 T01301045  RH  029%=      5-min Rain = 0
KAM1 211654Z 23022G28KT 13/M04 A2977 RMK A01 T01291044  RH  030%=      5-min Rain = 0
KAM1 211655Z 23024KT 13/M04 A2977 RMK A01 T01311044  RH  029%=      5-min Rain = 0
KAM1 211656Z 23024KT 13/M05 A2977 RMK A01 T01311046  RH  029%=      5-min Rain = 0
KAM1 211657Z 22022G27KT 13/M05 A2977 RMK A01 T01321046  RH  029%=      5-min Rain = 0
KAM1 211658Z 22022KT 13/M05 A2977 RMK A01 T01331045  RH  029%=      5-min Rain = 0
KAM1 211659Z 23024KT 13/M05 A2977 RMK A01 T01331048  RH  028%=      5-min Rain = 0
KAM1 211700Z 23019KT 13/M05 A2977 RMK A01 T01321048  RH  028%=      5-min Rain = 0
KAM1 211701Z 23022G27KT 13/M05 A2977 RMK A01 T01331046  RH  029%=      5-min Rain = 0
KAM1 211702Z 23023KT 14/M05 A2977 RMK A01 T01351048  RH  028%=      5-min Rain = 0
KAM1 211703Z 23022KT 14/M05 A2977 RMK A01 T01361049  RH  027%=      5-min Rain = 0
KAM1 211704Z 23022KT 14/M05 A2977 RMK A01 T01371049  RH  027%=      5-min Rain = 0
KAM1 211705Z 22022KT 14/M05 A2977 RMK A01 T01371048  RH  027%=      5-min Rain = 0
KAM1 211706Z 23022G27KT 14/M05 A2977 RMK A01 T01371050  RH  027%=      5-min Rain = 0
KAM1 211707Z 23017KT 14/M05 A2977 RMK A01 T01391048  RH  027%=      5-min Rain = 0
KAM1 211708Z 23019G24KT 14/M05 A2977 RMK A01 T01421046  RH  027%=      5-min Rain = 0
KAM1 211709Z 22018KT 14/M05 A2977 RMK A01 T01431048  RH  026%=      5-min Rain = 0
KAM1 211710Z 22018KT 14/M05 A2977 RMK A01 T01441046  RH  026%=      5-min Rain = 0
KAM1 211711Z 23020G25KT 15/M05 A2977 RMK A01 T01471046  RH  026%=      5-min Rain = 0
KAM1 211712Z 23021G26KT 15/M05 A2977 RMK A01 T01471047  RH  026%=      5-min Rain = 0
KAM1 211713Z 23017G24KT 15/M05 A2977 RMK A01 T01481048  RH  025%=      5-min Rain = 0
KAM1 211714Z 23022G27KT 15/M05 A2977 RMK A01 T01501046  RH  026%=      5-min Rain = 0
KAM1 211715Z 23020KT 15/M05 A2977 RMK A01 T01501048  RH  025%=      5-min Rain = 0
KAM1 211716Z 22023KT 15/M05 A2977 RMK A01 T01511048  RH  025%=      5-min Rain = 0
KAM1 211717Z 23020KT 15/M05 A2977 RMK A01 T01511049  RH  025%=      5-min Rain = 0
KAM1 211718Z 22021G27KT 15/M05 A2977 RMK A01 T01511050  RH  025%=      5-min Rain = 0
KAM1 211719Z 23019G24KT 15/M05 A2977 RMK A01 T01521048  RH  025%=      5-min Rain = 0
KAM1 211720Z 23019G25KT 15/M05 A2977 RMK A01 T01541047  RH  025%=      5-min Rain = 0
KAM1 211721Z 23020KT 16/M05 A2977 RMK A01 T01551049  RH  024%=      5-min Rain = 0
KAM1 211722Z 23018KT 16/M05 A2977 RMK A01 T01551048  RH  024%=      5-min Rain = 0
KAM1 211723Z 23020KT 16/M05 A2977 RMK A01 T01561047  RH  024%=      5-min Rain = 0
KAM1 211724Z 23018KT 16/M05 A2977 RMK A01 T01571047  RH  024%=      5-min Rain = 0
KAM1 211725Z 23019KT 16/M05 A2977 RMK A01 T01571047  RH  024%=      5-min Rain = 0
KAM1 211726Z 23022KT 16/M05 A2977 RMK A01 T01581047  RH  024%=      5-min Rain = 0
KAM1 211727Z 23020KT 16/M05 A2977 RMK A01 T01581049  RH  024%=      5-min Rain = 0
KAM1 211728Z 23019KT 16/M05 A2977 RMK A01 T01581048  RH  024%=      5-min Rain = 0
KAM1 211729Z 23020KT 16/M05 A2977 RMK A01 T01591049  RH  024%=      5-min Rain = 0
KAM1 211730Z 23017KT 16/M05 A2977 RMK A01 T01581048  RH  024%=      5-min Rain = 0
KAM1 211731Z 23019KT 16/M05 A2977 RMK A01 T01591046  RH  024%=      5-min Rain = 0
KAM1 211732Z 23018KT 16/M05 A2977 RMK A01 T01601047  RH  024%=      5-min Rain = 0
KAM1 211733Z 24017KT 16/M05 A2977 RMK A01 T01601047  RH  024%=      5-min Rain = 0
KAM1 211734Z 23020KT 16/M05 A2977 RMK A01 T01621046  RH  024%=      5-min Rain = 0
KAM1 211735Z 24021KT 16/M05 A2977 RMK A01 T01621049  RH  023%=      5-min Rain = 0
KAM1 211736Z 23018KT 16/M05 A2977 RMK A01 T01601050  RH  023%=      5-min Rain = 0
KAM1 211737Z 24017KT 16/M05 A2977 RMK A01 T01601049  RH  023%=      5-min Rain = 0
KAM1 211738Z 24017G22KT 16/M05 A2977 RMK A01 T01601048  RH  024%=      5-min Rain = 0
KAM1 211739Z 24017KT 16/M05 A2977 RMK A01 T01621048  RH  023%=      5-min Rain = 0
KAM1 211740Z 23020KT 16/M05 A2976 RMK A01 T01641047  RH  023%=      5-min Rain = 0
KAM1 211741Z 24017G22KT 16/M05 A2976 RMK A01 T01641048  RH  023%=      5-min Rain = 0
KAM1 211742Z 23015KT 17/M05 A2976 RMK A01 T01661046  RH  023%=      5-min Rain = 0
KAM1 211743Z 23019KT 17/M05 A2976 RMK A01 T01671046  RH  023%=      5-min Rain = 0
KAM1 211744Z 23020KT 17/M05 A2976 RMK A01 T01671048  RH  023%=      5-min Rain = 0
KAM1 211745Z 23019KT 17/M05 A2976 RMK A01 T01651050  RH  023%=      5-min Rain = 0
KAM1 211746Z 22020KT 16/M05 A2976 RMK A01 T01641048  RH  023%=      5-min Rain = 0
KAM1 211747Z 22019KT 16/M05 A2976 RMK A01 T01641050  RH  023%=      5-min Rain = 0
KAM1 211748Z 23018G23KT 16/M05 A2976 RMK A01 T01641048  RH  023%=      5-min Rain = 0
KAM1 211749Z 24020KT 16/M05 A2976 RMK A01 T01641048  RH  023%=      5-min Rain = 0
KAM1 211750Z 24018KT 17/M05 A2976 RMK A01 T01651047  RH  023%=      5-min Rain = 0
KAM1 211751Z 23017G22KT 17/M05 A2976 RMK A01 T01671045  RH  023%=      5-min Rain = 0
KAM1 211752Z 23017G22KT 17/M05 A2976 RMK A01 T01691045  RH  023%=      5-min Rain = 0
KAM1 211753Z 23019KT 17/M05 A2976 RMK A01 T01681046  RH  023%=      5-min Rain = 0
KAM1 211754Z 24018KT 17/M05 A2976 RMK A01 T01651048  RH  023%=      5-min Rain = 0
KAM1 211755Z 23015G20KT 16/M05 A2976 RMK A01 T01641045  RH  023%=      5-min Rain = 0
KAM1 211756Z 23016KT 17/M05 A2976 RMK A01 T01661045  RH  023%=      5-min Rain = 0
KAM1 211757Z 23017KT 17/M05 A2976 RMK A01 T01651047  RH  023%=      5-min Rain = 0
KAM1 211758Z 23018KT 16/M05 A2976 RMK A01 T01641046  RH  023%=      5-min Rain = 0
KAM1 211759Z 23017KT 16/M05 A2976 RMK A01 T01621048  RH  023%=      5-min Rain = 0
KAM1 211800Z 24018KT 16/M05 A2976 RMK A01 T01611048  RH  023%=      5-min Rain = 0
KAM1 211801Z 24019KT 16/M05 A2976 RMK A01 T01611047  RH  023%=      5-min Rain = 0
KAM1 211802Z 24019G24KT 16/M05 A2976 RMK A01 T01631046  RH  023%=      5-min Rain = 0
KAM1 211803Z 24019KT 16/M05 A2975 RMK A01 T01641047  RH  023%=      5-min Rain = 0
KAM1 211804Z 24016KT 16/M05 A2975 RMK A01 T01641046  RH  023%=      5-min Rain = 0
KAM1 211805Z 24014KT 17/M04 A2975 RMK A01 T01671043  RH  023%=      5-min Rain = 0
KAM1 211806Z 24016KT 17/M04 A2975 RMK A01 T01711041  RH  023%=      5-min Rain = 0
KAM1 211807Z 24015KT 17/M04 A2975 RMK A01 T01731041  RH  023%=      5-min Rain = 0
KAM1 211808Z 23016KT 18/M04 A2975 RMK A01 T01751041  RH  023%=      5-min Rain = 0
KAM1 211809Z 23017KT 18/M04 A2975 RMK A01 T01751041  RH  023%=      5-min Rain = 0
KAM1 211810Z 23018KT 18/M04 A2975 RMK A01 T01761042  RH  022%=      5-min Rain = 0
KAM1 211811Z 24018KT 17/M05 A2975 RMK A01 T01741045  RH  022%=      5-min Rain = 0
KAM1 211812Z 24017G23KT 17/M04 A2975 RMK A01 T01731044  RH  022%=      5-min Rain = 0
KAM1 211813Z 24019G24KT 17/M05 A2975 RMK A01 T01731045  RH  022%=      5-min Rain = 0
KAM1 211814Z 24020G25KT 17/M05 A2975 RMK A01 T01721047  RH  022%=      5-min Rain = 0
KAM1 211815Z 24019G24KT 17/M05 A2975 RMK A01 T01721046  RH  022%=      5-min Rain = 0
KAM1 211816Z 23017KT 17/M05 A2974 RMK A01 T01701046  RH  022%=      5-min Rain = 0
KAM1 211817Z 24017KT 17/M05 A2974 RMK A01 T01691045  RH  023%=      5-min Rain = 0
KAM1 211818Z 23015KT 17/M04 A2974 RMK A01 T01701043  RH  023%=      5-min Rain = 0
KAM1 211819Z 23017KT 17/M04 A2974 RMK A01 T01721041  RH  023%=      5-min Rain = 0
KAM1 211820Z 23018KT 17/M04 A2974 RMK A01 T01731041  RH  023%=      5-min Rain = 0
KAM1 211821Z 23018KT 17/M04 A2974 RMK A01 T01741043  RH  022%=      5-min Rain = 0
KAM1 211822Z 24017KT 18/M04 A2974 RMK A01 T01751044  RH  022%=      5-min Rain = 0
KAM1 211823Z 23020G26KT 18/M04 A2974 RMK A01 T01761044  RH  022%=      5-min Rain = 0
KAM1 211824Z 23021KT 18/M05 A2974 RMK A01 T01761046  RH  022%=      5-min Rain = 0
KAM1 211825Z 23018KT 18/M05 A2974 RMK A01 T01751046  RH  022%=      5-min Rain = 0
KAM1 211826Z 23016KT 18/M04 A2974 RMK A01 T01751043  RH  022%=      5-min Rain = 0
KAM1 211827Z 22020KT 18/M04 A2973 RMK A01 T01781042  RH  022%=      5-min Rain = 0
KAM1 211828Z 22018KT 18/M04 A2973 RMK A01 T01781043  RH  022%=      5-min Rain = 0
KAM1 211829Z 22018KT 18/M04 A2973 RMK A01 T01761043  RH  022%=      5-min Rain = 0
KAM1 211830Z 23018KT 17/M04 A2973 RMK A01 T01741044  RH  022%=      5-min Rain = 0
KAM1 211831Z 23016KT 17/M04 A2973 RMK A01 T01741041  RH  023%=      5-min Rain = 0
KAM1 211832Z 24019KT 18/M04 A2973 RMK A01 T01771042  RH  022%=      5-min Rain = 0
KAM1 211833Z 24017KT 18/M05 A2973 RMK A01 T01781045  RH  022%=      5-min Rain = 0
KAM1 211834Z 24017KT 18/M04 A2973 RMK A01 T01791042  RH  022%=      5-min Rain = 0
KAM1 211835Z 24017KT 18/M05 A2973 RMK A01 T01791045  RH  021%=      5-min Rain = 0
KAM1 211836Z 22015KT 18/M05 A2973 RMK A01 T01781046  RH  021%=      5-min Rain = 0
KAM1 211837Z 23018KT 18/M04 A2973 RMK A01 T01781043  RH  022%=      5-min Rain = 0
KAM1 211838Z 22016KT 18/M04 A2973 RMK A01 T01791044  RH  022%=      5-min Rain = 0
KAM1 211839Z 22016KT 18/M04 A2973 RMK A01 T01791044  RH  022%=      5-min Rain = 0
KAM1 211840Z 23018KT 18/M04 A2973 RMK A01 T01791044  RH  022%=      5-min Rain = 0
KAM1 211841Z 23018KT 18/M05 A2972 RMK A01 T01811046  RH  021%=      5-min Rain = 0
KAM1 211842Z 22017KT 18/M05 A2972 RMK A01 T01801045  RH  021%=      5-min Rain = 0
KAM1 211843Z 23015KT 18/M05 A2972 RMK A01 T01811046  RH  021%=      5-min Rain = 0
KAM1 211844Z 23017G22KT 18/M05 A2972 RMK A01 T01821046  RH  021%=      5-min Rain = 0
KAM1 211845Z 22015G20KT 18/M05 A2972 RMK A01 T01821046  RH  021%=      5-min Rain = 0
KAM1 211846Z 23015G20KT 18/M04 A2972 RMK A01 T01841043  RH  021%=      5-min Rain = 0
KAM1 211847Z 23016G21KT 19/M05 A2972 RMK A01 T01861045  RH  021%=      5-min Rain = 0
KAM1 211848Z 22014KT 19/M05 A2972 RMK A01 T01861048  RH  020%=      5-min Rain = 0
KAM1 211849Z 22014KT 19/M04 A2972 RMK A01 T01861043  RH  021%=      5-min Rain = 0
KAM1 211850Z 22016KT 19/M04 A2972 RMK A01 T01861042  RH  021%=      5-min Rain = 0
KAM1 211851Z 23017KT 19/M04 A2972 RMK A01 T01851043  RH  021%=      5-min Rain = 0
KAM1 211852Z 23017KT 19/M05 A2972 RMK A01 T01851045  RH  020%=      5-min Rain = 0
KAM1 211853Z 22017G22KT 19/M05 A2972 RMK A01 T01851046  RH  020%=      5-min Rain = 0
KAM1 211854Z 22017KT 19/M05 A2971 RMK A01 T01851048  RH  020%=      5-min Rain = 0
KAM1 211855Z 22019KT 19/M05 A2971 RMK A01 T01851048  RH  020%=      5-min Rain = 0
KAM1 211856Z 23019KT 19/M05 A2971 RMK A01 T01861048  RH  020%=      5-min Rain = 0
KAM1 211857Z 23018KT 19/M05 A2971 RMK A01 T01861048  RH  020%=      5-min Rain = 0
KAM1 211858Z 23014KT 19/M05 A2971 RMK A01 T01861046  RH  020%=      5-min Rain = 0
KAM1 211859Z 22016KT 19/M04 A2971 RMK A01 T01871044  RH  020%=      5-min Rain = 0
KAM1 211900Z 22019KT 19/M05 A2971 RMK A01 T01881046  RH  020%=      5-min Rain = 0
KAM1 211901Z 23021KT 19/M05 A2971 RMK A01 T01891047  RH  020%=      5-min Rain = 0
KAM1 211902Z 23018G24KT 19/M05 A2971 RMK A01 T01871052  RH  019%=      5-min Rain = 0
KAM1 211903Z 23019G24KT 19/M05 A2971 RMK A01 T01861050  RH  020%=      5-min Rain = 0
KAM1 211904Z 24016KT 19/M05 A2971 RMK A01 T01861048  RH  020%=      5-min Rain = 0
KAM1 211905Z 23013KT 19/M05 A2971 RMK A01 T01851047  RH  020%=      5-min Rain = 0
KAM1 211906Z 24015KT 19/M04 A2971 RMK A01 T01881044  RH  020%=      5-min Rain = 0
KAM1 211907Z 24015KT 19/M05 A297 RMK A01 T01881046  RH  020%=      5-min Rain = 0
KAM1 211908Z 24015KT 19/M05 A297 RMK A01 T01891045  RH  020%=      5-min Rain = 0
KAM1 211909Z 24019KT 19/M05 A297 RMK A01 T01891046  RH  020%=      5-min Rain = 0
KAM1 211910Z 24017KT 19/M05 A297 RMK A01 T01891048  RH  020%=      5-min Rain = 0
KAM1 211911Z 23016KT 19/M05 A297 RMK A01 T01891047  RH  020%=      5-min Rain = 0
KAM1 211912Z 23013KT 19/M05 A297 RMK A01 T01891047  RH  020%=      5-min Rain = 0
KAM1 211913Z 23011KT 19/M04 A297 RMK A01 T01901042  RH  020%=      5-min Rain = 0
KAM1 211914Z 23016G22KT 19/M04 A297 RMK A01 T01931042  RH  020%=      5-min Rain = 0
KAM1 211915Z 24019KT 19/M05 A297 RMK A01 T01941046  RH  019%=      5-min Rain = 0
KAM1 211916Z 23019KT 19/M05 A297 RMK A01 T01931050  RH  019%=      5-min Rain = 0
KAM1 211917Z 23020KT 19/M05 A297 RMK A01 T01911050  RH  019%=      5-min Rain = 0
KAM1 211918Z 23018KT 19/M05 A297 RMK A01 T01901050  RH  019%=      5-min Rain = 0
KAM1 211919Z 23019G24KT 19/M05 A297 RMK A01 T01901049  RH  019%=      5-min Rain = 0
KAM1 211920Z 24019KT 19/M05 A297 RMK A01 T01901051  RH  019%=      5-min Rain = 0
KAM1 211921Z 24016G21KT 19/M05 A297 RMK A01 T01901051  RH  019%=      5-min Rain = 0
KAM1 211922Z 23018KT 19/M05 A297 RMK A01 T01901050  RH  019%=      5-min Rain = 0
KAM1 211923Z 23018KT 19/M05 A297 RMK A01 T01901052  RH  019%=      5-min Rain = 0
KAM1 211924Z 23019KT 19/M05 A297 RMK A01 T01911050  RH  019%=      5-min Rain = 0
KAM1 211925Z 24018G23KT 19/M05 A297 RMK A01 T01911052  RH  019%=      5-min Rain = 0
KAM1 211926Z 24018KT 19/M05 A297 RMK A01 T01921050  RH  019%=      5-min Rain = 0
KAM1 211927Z 23019KT 19/M05 A297 RMK A01 T01921054  RH  018%=      5-min Rain = 0
KAM1 211928Z 23018KT 19/M05 A2969 RMK A01 T01911054  RH  018%=      5-min Rain = 0
KAM1 211929Z 23020KT 19/M06 A2969 RMK A01 T01911055  RH  018%=      5-min Rain = 0
KAM1 211930Z 23022KT 19/M06 A2969 RMK A01 T01931055  RH  018%=      5-min Rain = 0
KAM1 211931Z 23019KT 19/M06 A2969 RMK A01 T01931055  RH  018%=      5-min Rain = 0
KAM1 211932Z 23020KT 19/M06 A2969 RMK A01 T01941055  RH  018%=      5-min Rain = 0
KAM1 211933Z 23019KT 19/M06 A2969 RMK A01 T01931056  RH  018%=      5-min Rain = 0
KAM1 211934Z 23020G25KT 19/M05 A2969 RMK A01 T01921054  RH  018%=      5-min Rain = 0
KAM1 211935Z 24021KT 19/M05 A2969 RMK A01 T01941054  RH  018%=      5-min Rain = 0
KAM1 211936Z 24020KT 19/M05 A2969 RMK A01 T01941054  RH  018%=      5-min Rain = 0
KAM1 211937Z 24020KT 19/M05 A2969 RMK A01 T01941053  RH  018%=      5-min Rain = 0
KAM1 211938Z 24017G22KT 19/M05 A2969 RMK A01 T01941052  RH  018%=      5-min Rain = 0
KAM1 211939Z 23016G21KT 20/M05 A2968 RMK A01 T01971046  RH  019%=      5-min Rain = 0
KAM1 211940Z 23017KT 20/M05 A2968 RMK A01 T02001047  RH  019%=      5-min Rain = 0
KAM1 211941Z 23015G20KT 20/M05 A2968 RMK A01 T02011047  RH  018%=      5-min Rain = 0
KAM1 211942Z 23013G21KT 20/M04 A2968 RMK A01 T02031044  RH  019%=      5-min Rain = 0
KAM1 211943Z 24019KT 21/M04 A2968 RMK A01 T02051044  RH  018%=      5-min Rain = 0
KAM1 211944Z 23020KT 20/M05 A2968 RMK A01 T02041047  RH  018%=      5-min Rain = 0
KAM1 211945Z 23019KT 20/M05 A2968 RMK A01 T02011050  RH  018%=      5-min Rain = 0
KAM1 211946Z 24016KT 20/M05 A2968 RMK A01 T01991049  RH  018%=      5-min Rain = 0
KAM1 211947Z 23020KT 20/M05 A2968 RMK A01 T01981046  RH  019%=      5-min Rain = 0
KAM1 211948Z 23020KT 20/M05 A2968 RMK A01 T01971049  RH  018%=      5-min Rain = 0
KAM1 211949Z 22022G28KT 20/M05 A2968 RMK A01 T01961052  RH  018%=      5-min Rain = 0
KAM1 211950Z 22021G26KT 20/M06 A2968 RMK A01 T01951055  RH  018%=      5-min Rain = 0
KAM1 211951Z 22024KT 19/M05 A2967 RMK A01 T01941054  RH  018%=      5-min Rain = 0
KAM1 211952Z 23025KT 19/M06 A2967 RMK A01 T01941057  RH  018%=      5-min Rain = 0
KAM1 211953Z 23025KT 19/M06 A2967 RMK A01 T01941056  RH  018%=      5-min Rain = 0
KAM1 211954Z 22022KT 20/M05 A2967 RMK A01 T01951053  RH  018%=      5-min Rain = 0
KAM1 211955Z 22020KT 20/M05 A2967 RMK A01 T01951053  RH  018%=      5-min Rain = 0
KAM1 211956Z 22020G26KT 20/M05 A2967 RMK A01 T01981049  RH  018%=      5-min Rain = 0
KAM1 211957Z 22020G25KT 20/M05 A2967 RMK A01 T02011050  RH  018%=      5-min Rain = 0
KAM1 211958Z 23020KT 20/M05 A2967 RMK A01 T02011048  RH  018%=      5-min Rain = 0
KAM1 211959Z 23015KT 20/M04 A2967 RMK A01 T02031043  RH  019%=      5-min Rain = 0
KAM1 212000Z 24018KT 21/M04 A2967 RMK A01 T02061041  RH  019%=      5-min Rain = 0
KAM1 212001Z 23018KT 21/M05 A2967 RMK A01 T02061045  RH  018%=      5-min Rain = 0
KAM1 212002Z 23018KT 20/M05 A2967 RMK A01 T02041046  RH  018%=      5-min Rain = 0
KAM1 212003Z 23017KT 20/M05 A2967 RMK A01 T02041045  RH  018%=      5-min Rain = 0
KAM1 212004Z 23017KT 21/M04 A2967 RMK A01 T02051044  RH  018%=      5-min Rain = 0
KAM1 212005Z 22016KT 21/M04 A2967 RMK A01 T02061043  RH  018%=      5-min Rain = 0
KAM1 212006Z 22017G23KT 21/M04 A2967 RMK A01 T02071044  RH  018%=      5-min Rain = 0
KAM1 212007Z 23019KT 21/M05 A2967 RMK A01 T02071045  RH  018%=      5-min Rain = 0
KAM1 212008Z 22019KT 21/M05 A2967 RMK A01 T02081045  RH  018%=      5-min Rain = 0
KAM1 212009Z 22019G24KT 21/M05 A2967 RMK A01 T02051045  RH  018%=      5-min Rain = 0
KAM1 212010Z 22019KT 20/M05 A2967 RMK A01 T02041046  RH  018%=      5-min Rain = 0
KAM1 212011Z 23018KT 20/M05 A2967 RMK A01 T02031045  RH  018%=      5-min Rain = 0
KAM1 212012Z 23019KT 20/M04 A2967 RMK A01 T02041042  RH  019%=      5-min Rain = 0
KAM1 212013Z 23020KT 21/M04 A2967 RMK A01 T02051043  RH  018%=      5-min Rain = 0
KAM1 212014Z 23019KT 20/M05 A2967 RMK A01 T02041045  RH  018%=      5-min Rain = 0
KAM1 212015Z 23018KT 21/M04 A2967 RMK A01 T02051043  RH  019%=      5-min Rain = 0
KAM1 212016Z 22017KT 21/M04 A2967 RMK A01 T02061044  RH  018%=      5-min Rain = 0
KAM1 212017Z 21016KT 21/M04 A2966 RMK A01 T02061043  RH  018%=      5-min Rain = 0
KAM1 212018Z 23018KT 21/M04 A2966 RMK A01 T02061042  RH  018%=      5-min Rain = 0
KAM1 212019Z 22016KT 21/M04 A2966 RMK A01 T02071041  RH  018%=      5-min Rain = 0
KAM1 212020Z 22019KT 21/M05 A2966 RMK A01 T02071045  RH  018%=      5-min Rain = 0
KAM1 212021Z 22020KT 21/M05 A2966 RMK A01 T02051048  RH  018%=      5-min Rain = 0
KAM1 212022Z 22016KT 20/M05 A2967 RMK A01 T02031048  RH  018%=      5-min Rain = 0
KAM1 212023Z 22015KT 20/M05 A2967 RMK A01 T02041045  RH  018%=      5-min Rain = 0
KAM1 212024Z 22020KT 21/M05 A2967 RMK A01 T02071045  RH  018%=      5-min Rain = 0
KAM1 212025Z 22020KT 21/M05 A2967 RMK A01 T02071049  RH  018%=      5-min Rain = 0
KAM1 212026Z 23018KT 20/M05 A2967 RMK A01 T02041050  RH  018%=      5-min Rain = 0
KAM1 212027Z 23018KT 20/M05 A2966 RMK A01 T02041048  RH  018%=      5-min Rain = 0
KAM1 212028Z 23015KT 20/M05 A2966 RMK A01 T02041047  RH  018%=      5-min Rain = 0
KAM1 212029Z 22019KT 21/M05 A2966 RMK A01 T02051046  RH  018%=      5-min Rain = 0
KAM1 212030Z 22020KT 21/M05 A2966 RMK A01 T02051048  RH  018%=      5-min Rain = 0
KAM1 212031Z 22019G25KT 20/M05 A2966 RMK A01 T02041050  RH  018%=      5-min Rain = 0
KAM1 212032Z 21017KT 20/M05 A2966 RMK A01 T02031048  RH  018%=      5-min Rain = 0
KAM1 212033Z 22017KT 21/M05 A2966 RMK A01 T02051046  RH  018%=      5-min Rain = 0
KAM1 212034Z 22019G25KT 21/M05 A2966 RMK A01 T02061046  RH  018%=      5-min Rain = 0
KAM1 212035Z 22019G24KT 21/M05 A2966 RMK A01 T02071048  RH  018%=      5-min Rain = 0
KAM1 212036Z 22020KT 21/M05 A2966 RMK A01 T02071047  RH  018%=      5-min Rain = 0
KAM1 212037Z 22019KT 21/M05 A2966 RMK A01 T02071047  RH  018%=      5-min Rain = 0
KAM1 212038Z 22017KT 21/M05 A2966 RMK A01 T02071048  RH  018%=      5-min Rain = 0
KAM1 212039Z 22020G25KT 21/M05 A2966 RMK A01 T02081047  RH  018%=      5-min Rain = 0
KAM1 212040Z 22015KT 21/M05 A2966 RMK A01 T02081048  RH  017%=      5-min Rain = 0
KAM1 212041Z 22016KT 21/M04 A2966 RMK A01 T02091043  RH  018%=      5-min Rain = 0
KAM1 212042Z 22016KT 21/M04 A2966 RMK A01 T02111044  RH  018%=      5-min Rain = 0
KAM1 212043Z 23016KT 21/M05 A2966 RMK A01 T02121045  RH  017%=      5-min Rain = 0
KAM1 212044Z 23014KT 21/M05 A2966 RMK A01 T02121045  RH  017%=      5-min Rain = 0
KAM1 212045Z 23015KT 21/M05 A2966 RMK A01 T02121045  RH  017%=      5-min Rain = 0
KAM1 212046Z 22013KT 21/M05 A2966 RMK A01 T02111047  RH  017%=      5-min Rain = 0
KAM1 212047Z 22014KT 21/M05 A2966 RMK A01 T02111047  RH  017%=      5-min Rain = 0
KAM1 212048Z 23015G20KT 21/M05 A2965 RMK A01 T02141046  RH  017%=      5-min Rain = 0
KAM1 212049Z 22015G20KT 21/M05 A2965 RMK A01 T02141047  RH  017%=      5-min Rain = 0
KAM1 212050Z 23016KT 21/M05 A2965 RMK A01 T02141048  RH  017%=      5-min Rain = 0
KAM1 212051Z 23018KT 21/M05 A2965 RMK A01 T02141049  RH  017%=      5-min Rain = 0
KAM1 212052Z 23015KT 21/M05 A2965 RMK A01 T02121049  RH  017%=      5-min Rain = 0
KAM1 212053Z 23014KT 21/M05 A2965 RMK A01 T02121045  RH  017%=      5-min Rain = 0
KAM1 212054Z 21017G23KT 21/M05 A2965 RMK A01 T02131045  RH  017%=      5-min Rain = 0
KAM1 212055Z 20019KT 21/M05 A2965 RMK A01 T02141048  RH  017%=      5-min Rain = 0
KAM1 212056Z 21017KT 21/M05 A2965 RMK A01 T02141048  RH  017%=      5-min Rain = 0
KAM1 212057Z 20016KT 21/M05 A2965 RMK A01 T02141045  RH  017%=      5-min Rain = 0
KAM1 212058Z 21013KT 22/M05 A2965 RMK A01 T02151045  RH  017%=      5-min Rain = 0
KAM1 212059Z 20014KT 22/M04 A2965 RMK A01 T02161044  RH  017%=      5-min Rain = 0
KAM1 212100Z 20014KT 22/M05 A2965 RMK A01 T02161046  RH  017%=      5-min Rain = 0
KAM1 212101Z 22015KT 22/M05 A2965 RMK A01 T02151045  RH  017%=      5-min Rain = 0
KAM1 212102Z 23013KT 21/M05 A2965 RMK A01 T02131046  RH  017%=      5-min Rain = 0
KAM1 212103Z 23011KT 21/M05 A2965 RMK A01 T02111045  RH  018%=      5-min Rain = 0
KAM1 212104Z 22013KT 21/M04 A2965 RMK A01 T02131042  RH  018%=      5-min Rain = 0
KAM1 212105Z 22017G23KT 22/M05 A2964 RMK A01 T02151047  RH  017%=      5-min Rain = 0
KAM1 212106Z 23017G23KT 22/M05 A2964 RMK A01 T02151050  RH  017%=      5-min Rain = 0
KAM1 212107Z 22018KT 22/M05 A2965 RMK A01 T02151048  RH  017%=      5-min Rain = 0
KAM1 212108Z 21018KT 22/M05 A2964 RMK A01 T02151047  RH  017%=      5-min Rain = 0
KAM1 212109Z 22020KT 21/M05 A2964 RMK A01 T02141050  RH  017%=      5-min Rain = 0
KAM1 212110Z 23016KT 21/M05 A2964 RMK A01 T02111051  RH  017%=      5-min Rain = 0
KAM1 212111Z 23018KT 21/M05 A2964 RMK A01 T02111048  RH  017%=      5-min Rain = 0
KAM1 212112Z 22014KT 21/M05 A2964 RMK A01 T02111047  RH  017%=      5-min Rain = 0
KAM1 212113Z 23013KT 21/M05 A2964 RMK A01 T02121048  RH  017%=      5-min Rain = 0
KAM1 212114Z 21013G18KT 21/M04 A2964 RMK A01 T02141043  RH  017%=      5-min Rain = 0
KAM1 212115Z 22012KT 22/M04 A2964 RMK A01 T02171044  RH  017%=      5-min Rain = 0
KAM1 212116Z 24013KT 22/M05 A2964 RMK A01 T02171045  RH  017%=      5-min Rain = 0
KAM1 212117Z 23015KT 22/M05 A2964 RMK A01 T02161045  RH  017%=      5-min Rain = 0
KAM1 212118Z 22017G24KT 22/M05 A2964 RMK A01 T02151047  RH  017%=      5-min Rain = 0
KAM1 212119Z 24019KT 21/M05 A2964 RMK A01 T02131053  RH  016%=      5-min Rain = 0
KAM1 212120Z 22016G22KT 21/M05 A2964 RMK A01 T02121053  RH  016%=      5-min Rain = 0
KAM1 212121Z 22014KT 21/M05 A2964 RMK A01 T02121053  RH  016%=      5-min Rain = 0
KAM1 212122Z 23014KT 21/M05 A2964 RMK A01 T02121049  RH  017%=      5-min Rain = 0
KAM1 212123Z 23018KT 21/M05 A2964 RMK A01 T02141049  RH  017%=      5-min Rain = 0
KAM1 212124Z 23015G20KT 21/M05 A2964 RMK A01 T02141051  RH  016%=      5-min Rain = 0
KAM1 212125Z 23018KT 22/M05 A2964 RMK A01 T02151051  RH  016%=      5-min Rain = 0
KAM1 212126Z 23017G22KT 22/M05 A2964 RMK A01 T02161050  RH  016%=      5-min Rain = 0
KAM1 212127Z 24016KT 22/M05 A2964 RMK A01 T02171050  RH  016%=      5-min Rain = 0
KAM1 212128Z 23013KT 22/M05 A2964 RMK A01 T02161050  RH  016%=      5-min Rain = 0
KAM1 212129Z 24011KT 22/M05 A2964 RMK A01 T02171048  RH  017%=      5-min Rain = 0
KAM1 212130Z 24015KT 22/M05 A2964 RMK A01 T02171052  RH  016%=      5-min Rain = 0
KAM1 212131Z 23017KT 22/M05 A2964 RMK A01 T02151054  RH  016%=      5-min Rain = 0
KAM1 212132Z 23013KT 21/M06 A2964 RMK A01 T02121055  RH  016%=      5-min Rain = 0
KAM1 212133Z 24017G22KT 21/M05 A2964 RMK A01 T02121053  RH  016%=      5-min Rain = 0
KAM1 212134Z 24018G24KT 21/M06 A2963 RMK A01 T02111059  RH  016%=      5-min Rain = 0
KAM1 212135Z 23017KT 21/M06 A2964 RMK A01 T02101059  RH  016%=      5-min Rain = 0
KAM1 212136Z 24016KT 21/M06 A2964 RMK A01 T02101058  RH  016%=      5-min Rain = 0
KAM1 212137Z 24015KT 21/M06 A2963 RMK A01 T02101058  RH  016%=      5-min Rain = 0
KAM1 212138Z 23019G26KT 21/M06 A2963 RMK A01 T02101058  RH  016%=      5-min Rain = 0
KAM1 212139Z 23019G25KT 21/M06 A2963 RMK A01 T02091059  RH  016%=      5-min Rain = 0
KAM1 212140Z 24023KT 21/M06 A2963 RMK A01 T02091058  RH  016%=      5-min Rain = 0
KAM1 212141Z 23019G24KT 21/M06 A2963 RMK A01 T02091058  RH  016%=      5-min Rain = 0
KAM1 212142Z 23022G29KT 21/M06 A2963 RMK A01 T02091056  RH  016%=      5-min Rain = 0
KAM1 212143Z 24020KT 21/M06 A2963 RMK A01 T02081058  RH  016%=      5-min Rain = 0
KAM1 212144Z 24018KT 21/M06 A2963 RMK A01 T02081059  RH  016%=      5-min Rain = 0
KAM1 212145Z 23020G25KT 21/M06 A2963 RMK A01 T02071058  RH  016%=      5-min Rain = 0
KAM1 212146Z 24018G23KT 21/M06 A2963 RMK A01 T02071058  RH  016%=      5-min Rain = 0
KAM1 212147Z 23018KT 21/M06 A2963 RMK A01 T02071057  RH  016%=      5-min Rain = 0
KAM1 212148Z 23019G24KT 21/M06 A2963 RMK A01 T02081056  RH  016%=      5-min Rain = 0
KAM1 212149Z 22017KT 21/M06 A2963 RMK A01 T02081057  RH  016%=      5-min Rain = 0
KAM1 212150Z 23018KT 21/M06 A2963 RMK A01 T02081058  RH  016%=      5-min Rain = 0
KAM1 212151Z 23019G24KT 21/M06 A2963 RMK A01 T02081058  RH  016%=      5-min Rain = 0
KAM1 212152Z 24019G24KT 21/M06 A2963 RMK A01 T02071058  RH  016%=      5-min Rain = 0
KAM1 212153Z 24019G26KT 21/M06 A2963 RMK A01 T02071061  RH  016%=      5-min Rain = 0
KAM1 212154Z 24019KT 21/M06 A2963 RMK A01 T02061062  RH  016%=      5-min Rain = 0
KAM1 212155Z 24018G23KT 21/M06 A2963 RMK A01 T02051064  RH  016%=      5-min Rain = 0
KAM1 212156Z 24016KT 20/M07 A2963 RMK A01 T02041065  RH  016%=      5-min Rain = 0
KAM1 212157Z 24016KT 20/M06 A2963 RMK A01 T02041064  RH  016%=      5-min Rain = 0
KAM1 212158Z 24016KT 20/M06 A2963 RMK A01 T02031064  RH  016%=      5-min Rain = 0
KAM1 212159Z 23013KT 20/M06 A2963 RMK A01 T02031064  RH  016%=      5-min Rain = 0
KAM1 212200Z 24013G18KT 20/M06 A2963 RMK A01 T02021061  RH  016%=      5-min Rain = 0
KAM1 212201Z 24016KT 20/M06 A2962 RMK A01 T02021063  RH  016%=      5-min Rain = 0
KAM1 212202Z 24013KT 20/M06 A2962 RMK A01 T02011063  RH  016%=      5-min Rain = 0
KAM1 212203Z 23014KT 20/M06 A2962 RMK A01 T02011062  RH  016%=      5-min Rain = 0
KAM1 212204Z 23016KT 20/M06 A2962 RMK A01 T02011063  RH  016%=      5-min Rain = 0
KAM1 212205Z 23018KT 20/M06 A2962 RMK A01 T02001064  RH  016%=      5-min Rain = 0
KAM1 212206Z 24015G20KT 20/M06 A2962 RMK A01 T02001064  RH  016%=      5-min Rain = 0
KAM1 212207Z 23014KT 20/M06 A2962 RMK A01 T01991063  RH  016%=      5-min Rain = 0
KAM1 212208Z 23014KT 20/M06 A2962 RMK A01 T01991062  RH  017%=      5-min Rain = 0
KAM1 212209Z 23012KT 20/M06 A2962 RMK A01 T01981061  RH  017%=      5-min Rain = 0
KAM1 212210Z 23014KT 20/M06 A2962 RMK A01 T01981061  RH  017%=      5-min Rain = 0
KAM1 212211Z 24014KT 20/M06 A2962 RMK A01 T01981061  RH  017%=      5-min Rain = 0
KAM1 212212Z 24012KT 20/M06 A2962 RMK A01 T01981061  RH  017%=      5-min Rain = 0
KAM1 212213Z 23012KT 20/M06 A2962 RMK A01 T01971060  RH  017%=      5-min Rain = 0
KAM1 212214Z 23011KT 20/M06 A2962 RMK A01 T01971060  RH  017%=      5-min Rain = 0
KAM1 212215Z 23011KT 20/M06 A2962 RMK A01 T01971059  RH  017%=      5-min Rain = 0
KAM1 212216Z 23012KT 20/M06 A2962 RMK A01 T01961059  RH  017%=      5-min Rain = 0
KAM1 212217Z 24011KT 20/M06 A2962 RMK A01 T01961059  RH  017%=      5-min Rain = 0
KAM1 212218Z 24012KT 20/M06 A2962 RMK A01 T01961058  RH  017%=      5-min Rain = 0
KAM1 212219Z 24014KT 20/M06 A2962 RMK A01 T01961058  RH  017%=      5-min Rain = 0
KAM1 212220Z 24013KT 20/M06 A2962 RMK A01 T01961060  RH  017%=      5-min Rain = 0
KAM1 212221Z 24011KT 20/M06 A2962 RMK A01 T01961059  RH  017%=      5-min Rain = 0
KAM1 212222Z 24010KT 20/M06 A2962 RMK A01 T01951058  RH  018%=      5-min Rain = 0
KAM1 212223Z 25010KT 19/M06 A2962 RMK A01 T01941057  RH  018%=      5-min Rain = 0
KAM1 212224Z 24009KT 19/M06 A2962 RMK A01 T01941057  RH  018%=      5-min Rain = 0
KAM1 212225Z 25010KT 19/M06 A2962 RMK A01 T01931057  RH  018%=      5-min Rain = 0
KAM1 212226Z 25011KT 19/M06 A2962 RMK A01 T01931056  RH  018%=      5-min Rain = 0
KAM1 212227Z 24010KT 19/M06 A2962 RMK A01 T01921056  RH  018%=      5-min Rain = 0
KAM1 212228Z 24010KT 19/M06 A2962 RMK A01 T01911055  RH  018%=      5-min Rain = 0
KAM1 212229Z 24009KT 19/M06 A2962 RMK A01 T01911055  RH  018%=      5-min Rain = 0
KAM1 212230Z 24008KT 19/M05 A2962 RMK A01 T01901054  RH  019%=      5-min Rain = 0
KAM1 212231Z 24009KT 19/M05 A2962 RMK A01 T01891054  RH  019%=      5-min Rain = 0
KAM1 212232Z 24009KT 19/M05 A2962 RMK A01 T01891054  RH  019%=      5-min Rain = 0
KAM1 212233Z 24008KT 19/M05 A2962 RMK A01 T01891054  RH  019%=      5-min Rain = 0
KAM1 212234Z 23010KT 19/M05 A2962 RMK A01 T01881054  RH  019%=      5-min Rain = 0
KAM1 212235Z 23008KT 19/M05 A2962 RMK A01 T01881053  RH  019%=      5-min Rain = 0
KAM1 212236Z 23009KT 19/M05 A2962 RMK A01 T01881052  RH  019%=      5-min Rain = 0
KAM1 212237Z 23009KT 19/M05 A2962 RMK A01 T01871052  RH  019%=      5-min Rain = 0
KAM1 212238Z 23008KT 19/M05 A2962 RMK A01 T01871052  RH  019%=      5-min Rain = 0
KAM1 212239Z 23009KT 19/M05 A2961 RMK A01 T01861052  RH  019%=      5-min Rain = 0
KAM1 212240Z 24009KT 19/M05 A2961 RMK A01 T01861052  RH  019%=      5-min Rain = 0
KAM1 212241Z 23009KT 19/M05 A2961 RMK A01 T01861051  RH  019%=      5-min Rain = 0
KAM1 212242Z 23010KT 19/M05 A2961 RMK A01 T01861051  RH  020%=      5-min Rain = 0
KAM1 212243Z 23010KT 19/M05 A2961 RMK A01 T01851051  RH  020%=      5-min Rain = 0
KAM1 212244Z 23009KT 19/M05 A2961 RMK A01 T01851051  RH  020%=      5-min Rain = 0
KAM1 212245Z 24009KT 19/M05 A2962 RMK A01 T01851050  RH  020%=      5-min Rain = 0
KAM1 212246Z 24008KT 18/M05 A2962 RMK A01 T01831050  RH  020%=      5-min Rain = 0
KAM1 212247Z 24008KT 18/M05 A2962 RMK A01 T01821050  RH  020%=      5-min Rain = 0
KAM1 212248Z 24008KT 18/M05 A2962 RMK A01 T01811050  RH  020%=      5-min Rain = 0
KAM1 212249Z 24008KT 18/M05 A2962 RMK A01 T01811050  RH  020%=      5-min Rain = 0
KAM1 212250Z 23009KT 18/M05 A2962 RMK A01 T01811050  RH  020%=      5-min Rain = 0
KAM1 212251Z 23008KT 18/M05 A2961 RMK A01 T01801050  RH  020%=      5-min Rain = 0
KAM1 212252Z 23008KT 18/M05 A2961 RMK A01 T01801049  RH  021%=      5-min Rain = 0
KAM1 212253Z 23007KT 18/M05 A2961 RMK A01 T01791049  RH  021%=      5-min Rain = 0
KAM1 212254Z 23007KT 18/M05 A2961 RMK A01 T01791048  RH  021%=      5-min Rain = 0
KAM1 212255Z 23007KT 18/M05 A2961 RMK A01 T01781048  RH  021%=      5-min Rain = 0
KAM1 212256Z 23007KT 18/M05 A2961 RMK A01 T01771048  RH  021%=      5-min Rain = 0
KAM1 212257Z 23007KT 18/M05 A2961 RMK A01 T01761047  RH  021%=      5-min Rain = 0
KAM1 212258Z 23006KT 18/M05 A2961 RMK A01 T01761047  RH  021%=      5-min Rain = 0
KAM1 212259Z 23006KT 18/M05 A2961 RMK A01 T01751047  RH  022%=      5-min Rain = 0
KAM1 212300Z 23006KT 17/M05 A2961 RMK A01 T01741047  RH  022%=      5-min Rain = 0
KAM1 212301Z 23006KT 17/M05 A2961 RMK A01 T01731046  RH  022%=      5-min Rain = 0
KAM1 212302Z 23007KT 17/M05 A2961 RMK A01 T01721046  RH  022%=      5-min Rain = 0
KAM1 212303Z 23006KT 17/M05 A2961 RMK A01 T01721046  RH  022%=      5-min Rain = 0
KAM1 212304Z 22006KT 17/M05 A2961 RMK A01 T01711045  RH  022%=      5-min Rain = 0
KAM1 212305Z 22006KT 17/M05 A2961 RMK A01 T01701045  RH  023%=      5-min Rain = 0
KAM1 212306Z 22006KT 17/M05 A2961 RMK A01 T01691045  RH  023%=      5-min Rain = 0
KAM1 212307Z 22006KT 17/M05 A2961 RMK A01 T01681045  RH  023%=      5-min Rain = 0
KAM1 212308Z 22006KT 17/M05 A2961 RMK A01 T01681045  RH  023%=      5-min Rain = 0
KAM1 212309Z 22006KT 17/M05 A2961 RMK A01 T01671045  RH  023%=      5-min Rain = 0
KAM1 212310Z 21006KT 17/M05 A2961 RMK A01 T01661045  RH  023%=      5-min Rain = 0
KAM1 212311Z 21006KT 17/M05 A2961 RMK A01 T01661045  RH  023%=      5-min Rain = 0
KAM1 212312Z 21006KT 17/M05 A2961 RMK A01 T01651045  RH  023%=      5-min Rain = 0
KAM1 212313Z 21005KT 16/M05 A2961 RMK A01 T01641045  RH  023%=      5-min Rain = 0
KAM1 212314Z 21005KT 16/M05 A2961 RMK A01 T01631045  RH  024%=      5-min Rain = 0
KAM1 212315Z 21005KT 16/M05 A2961 RMK A01 T01631046  RH  024%=      5-min Rain = 0
KAM1 212316Z 21005KT 16/M05 A2961 RMK A01 T01621046  RH  024%=      5-min Rain = 0
KAM1 212317Z 21005KT 16/M05 A2961 RMK A01 T01611047  RH  024%=      5-min Rain = 0
KAM1 212318Z 21005KT 16/M05 A2961 RMK A01 T01611046  RH  024%=      5-min Rain = 0
KAM1 212319Z 20005KT 16/M05 A2961 RMK A01 T01601046  RH  024%=      5-min Rain = 0
KAM1 212320Z 20005KT 16/M05 A2961 RMK A01 T01591047  RH  024%=      5-min Rain = 0
KAM1 212321Z 20005KT 16/M05 A2961 RMK A01 T01591047  RH  024%=      5-min Rain = 0
KAM1 212322Z 20006KT 16/M05 A2961 RMK A01 T01591046  RH  024%=      5-min Rain = 0
KAM1 212323Z 20006KT 16/M05 A296 RMK A01 T01591046  RH  024%=      5-min Rain = 0
KAM1 212324Z 19005KT 16/M05 A296 RMK A01 T01581046  RH  024%=      5-min Rain = 0
KAM1 212325Z 20005KT 16/M05 A296 RMK A01 T01571046  RH  024%=      5-min Rain = 0
KAM1 212326Z 19006KT 16/M05 A296 RMK A01 T01551046  RH  025%=      5-min Rain = 0
KAM1 212327Z 19006KT 15/M05 A296 RMK A01 T01531046  RH  025%=      5-min Rain = 0
KAM1 212328Z 19006KT 15/M05 A296 RMK A01 T01531046  RH  025%=      5-min Rain = 0
KAM1 212329Z 18006KT 15/M05 A296 RMK A01 T01511046  RH  025%=      5-min Rain = 0
KAM1 212330Z 19007KT 15/M05 A296 RMK A01 T01501046  RH  025%=      5-min Rain = 0
KAM1 212331Z 18007KT 15/M05 A296 RMK A01 T01491046  RH  026%=      5-min Rain = 0
KAM1 212332Z 18007KT 15/M05 A296 RMK A01 T01481046  RH  026%=      5-min Rain = 0
KAM1 212333Z 18008KT 15/M04 A296 RMK A01 T01471044  RH  026%=      5-min Rain = 0
KAM1 212334Z 19008KT 15/M05 A296 RMK A01 T01461045  RH  026%=      5-min Rain = 0
KAM1 212335Z 19008KT 15/M04 A296 RMK A01 T01471043  RH  026%=      5-min Rain = 0
KAM1 212336Z 19009KT 15/M04 A296 RMK A01 T01491043  RH  026%=      5-min Rain = 0
KAM1 212337Z 19008KT 15/M04 A296 RMK A01 T01511044  RH  026%=      5-min Rain = 0
KAM1 212338Z 19008KT 15/M04 A2959 RMK A01 T01531044  RH  025%=      5-min Rain = 0
KAM1 212339Z 19010KT 16/M05 A2959 RMK A01 T01551045  RH  025%=      5-min Rain = 0
KAM1 212340Z 19010KT 16/M05 A2959 RMK A01 T01591046  RH  024%=      5-min Rain = 0
KAM1 212341Z 19010KT 16/M05 A2959 RMK A01 T01611046  RH  024%=      5-min Rain = 0
KAM1 212342Z 19009KT 16/M05 A2959 RMK A01 T01631047  RH  023%=      5-min Rain = 0
KAM1 212343Z 18008KT 16/M05 A2959 RMK A01 T01641047  RH  023%=      5-min Rain = 0
KAM1 212344Z 19008KT 17/M05 A2959 RMK A01 T01651048  RH  023%=      5-min Rain = 0
KAM1 212345Z 19007KT 17/M05 A2959 RMK A01 T01651047  RH  023%=      5-min Rain = 0
KAM1 212346Z 18007KT 16/M05 A2959 RMK A01 T01641048  RH  023%=      5-min Rain = 0
KAM1 212347Z 19007KT 16/M05 A2959 RMK A01 T01631048  RH  023%=      5-min Rain = 0
KAM1 212348Z 19006KT 16/M05 A2959 RMK A01 T01621049  RH  023%=      5-min Rain = 0
KAM1 212349Z 18007KT 16/M05 A2959 RMK A01 T01611049  RH  023%=      5-min Rain = 0
KAM1 212350Z 18007KT 16/M05 A2959 RMK A01 T01601049  RH  023%=      5-min Rain = 0
KAM1 212351Z 18007KT 16/M05 A2959 RMK A01 T01591049  RH  024%=      5-min Rain = 0
KAM1 212352Z 19006KT 16/M05 A2959 RMK A01 T01571050  RH  024%=      5-min Rain = 0
KAM1 212353Z 19006KT 16/M05 A2959 RMK A01 T01571050  RH  024%=      5-min Rain = 0
KAM1 212354Z 18006KT 16/M05 A2959 RMK A01 T01561050  RH  024%=      5-min Rain = 0
KAM1 212355Z 18006KT 16/M05 A2959 RMK A01 T01551050  RH  024%=      5-min Rain = 0
KAM1 212356Z 18007KT 15/M05 A2959 RMK A01 T01541051  RH  024%=      5-min Rain = 0
KAM1 212357Z 18007KT 15/M05 A2959 RMK A01 T01531051  RH  024%=      5-min Rain = 0
KAM1 212358Z 18007KT 15/M05 A2959 RMK A01 T01531051  RH  024%=      5-min Rain = 0
KAM1 212359Z 18007KT 15/M05 A2959 RMK A01 T01521051  RH  024%=      5-min Rain = 0
KAM1 220000Z 18007KT 15/M05 A2959 RMK A01 T01511051  RH  024%=      5-min Rain = 0
KAM1 220001Z 18007KT 15/M05 A2959 RMK A01 T01511051  RH  024%=      5-min Rain = 0
KAM1 220002Z 19007KT 15/M05 A2959 RMK A01 T01501052  RH  024%=      5-min Rain = 0
KAM1 220003Z 19007KT 15/M05 A2959 RMK A01 T01501052  RH  024%=      5-min Rain = 0
KAM1 220004Z 18008KT 15/M05 A2959 RMK A01 T01501052  RH  024%=      5-min Rain = 0
KAM1 220005Z 18008KT 15/M05 A2959 RMK A01 T01501052  RH  024%=      5-min Rain = 0
KAM1 220006Z 18008KT 15/M05 A2959 RMK A01 T01501051  RH  024%=      5-min Rain = 0
KAM1 220007Z 18008KT 15/M05 A2959 RMK A01 T01491052  RH  025%=      5-min Rain = 0
KAM1 220008Z 18009KT 15/M05 A2959 RMK A01 T01491052  RH  025%=      5-min Rain = 0
KAM1 220009Z 18009KT 15/M05 A2959 RMK A01 T01481052  RH  025%=      5-min Rain = 0
KAM1 220010Z 18009KT 15/M05 A2959 RMK A01 T01481052  RH  025%=      5-min Rain = 0
KAM1 220011Z 18010KT 15/M05 A2959 RMK A01 T01491051  RH  025%=      5-min Rain = 0
KAM1 220012Z 18010KT 15/M05 A2959 RMK A01 T01491051  RH  025%=      5-min Rain = 0
KAM1 220013Z 18011KT 15/M05 A2959 RMK A01 T01501051  RH  025%=      5-min Rain = 0
KAM1 220014Z 18010KT 15/M05 A2959 RMK A01 T01511051  RH  024%=      5-min Rain = 0
KAM1 220015Z 18010KT 15/M05 A2959 RMK A01 T01521051  RH  024%=      5-min Rain = 0
KAM1 220016Z 18011KT 15/M05 A2959 RMK A01 T01531051  RH  024%=      5-min Rain = 0
KAM1 220017Z 18011KT 15/M05 A2959 RMK A01 T01531051  RH  024%=      5-min Rain = 0
KAM1 220018Z 18011KT 15/M05 A2959 RMK A01 T01531051  RH  024%=      5-min Rain = 0
KAM1 220019Z 18011KT 15/M05 A2959 RMK A01 T01531051  RH  024%=      5-min Rain = 0
KAM1 220020Z 18011KT 15/M05 A2959 RMK A01 T01531051  RH  024%=      5-min Rain = 0
KAM1 220021Z 18011KT 15/M05 A2959 RMK A01 T01541052  RH  024%=      5-min Rain = 0
KAM1 220022Z 19012KT 16/M05 A2959 RMK A01 T01551051  RH  024%=      5-min Rain = 0
KAM1 220023Z 18012KT 16/M05 A2959 RMK A01 T01561051  RH  024%=      5-min Rain = 0
KAM1 220024Z 18012KT 16/M05 A2959 RMK A01 T01561051  RH  024%=      5-min Rain = 0
KAM1 220025Z 18010KT 16/M05 A2959 RMK A01 T01561052  RH  024%=      5-min Rain = 0
KAM1 220026Z 18010KT 16/M05 A2959 RMK A01 T01561051  RH  024%=      5-min Rain = 0
KAM1 220027Z 18011KT 16/M05 A2959 RMK A01 T01551052  RH  024%=      5-min Rain = 0
KAM1 220028Z 18011KT 16/M05 A2958 RMK A01 T01551051  RH  024%=      5-min Rain = 0
KAM1 220029Z 18012KT 16/M05 A2958 RMK A01 T01551052  RH  024%=      5-min Rain = 0
KAM1 220030Z 18010KT 16/M05 A2958 RMK A01 T01551052  RH  024%=      5-min Rain = 0
KAM1 220031Z 18011KT 16/M05 A2958 RMK A01 T01551051  RH  024%=      5-min Rain = 0
KAM1 220032Z 18011KT 15/M05 A2958 RMK A01 T01541052  RH  024%=      5-min Rain = 0
KAM1 220033Z 18011KT 15/M05 A2958 RMK A01 T01541051  RH  024%=      5-min Rain = 0
KAM1 220034Z 18010KT 15/M05 A2958 RMK A01 T01541051  RH  024%=      5-min Rain = 0
KAM1 220035Z 18011KT 15/M05 A2958 RMK A01 T01531051  RH  024%=      5-min Rain = 0
KAM1 220036Z 18012KT 15/M05 A2958 RMK A01 T01531051  RH  024%=      5-min Rain = 0
KAM1 220037Z 18012KT 15/M05 A2958 RMK A01 T01531051  RH  024%=      5-min Rain = 0
KAM1 220038Z 18011KT 15/M05 A2958 RMK A01 T01541051  RH  024%=      5-min Rain = 0
KAM1 220039Z 18011KT 15/M05 A2958 RMK A01 T01541051  RH  024%=      5-min Rain = 0
KAM1 220040Z 19010KT 15/M05 A2958 RMK A01 T01541051  RH  024%=      5-min Rain = 0
KAM1 220041Z 19010KT 15/M05 A2958 RMK A01 T01541051  RH  024%=      5-min Rain = 0
KAM1 220042Z 19010KT 15/M05 A2958 RMK A01 T01541051  RH  024%=      5-min Rain = 0
KAM1 220043Z 19011KT 15/M05 A2958 RMK A01 T01541052  RH  024%=      5-min Rain = 0
KAM1 220044Z 18011KT 16/M05 A2957 RMK A01 T01561052  RH  024%=      5-min Rain = 0
KAM1 220045Z 19010KT 16/M05 A2957 RMK A01 T01571052  RH  023%=      5-min Rain = 0
KAM1 220046Z 19010KT 16/M05 A2957 RMK A01 T01571052  RH  023%=      5-min Rain = 0
KAM1 220047Z 19011KT 16/M05 A2957 RMK A01 T01571052  RH  023%=      5-min Rain = 0
KAM1 220048Z 20012KT 16/M05 A2957 RMK A01 T01571053  RH  023%=      5-min Rain = 0
KAM1 220049Z 19015KT 16/M05 A2957 RMK A01 T01601052  RH  023%=      5-min Rain = 0
KAM1 220050Z 19013KT 16/M05 A2957 RMK A01 T01621052  RH  023%=      5-min Rain = 0
KAM1 220051Z 19013KT 16/M05 A2957 RMK A01 T01631052  RH  022%=      5-min Rain = 0
KAM1 220052Z 20012KT 16/M05 A2957 RMK A01 T01641053  RH  022%=      5-min Rain = 0
KAM1 220053Z 19012KT 16/M05 A2957 RMK A01 T01641053  RH  022%=      5-min Rain = 0
KAM1 220054Z 19016KT 16/M05 A2957 RMK A01 T01641054  RH  022%=      5-min Rain = 0
KAM1 220055Z 20014KT 17/M05 A2957 RMK A01 T01651054  RH  022%=      5-min Rain = 0
KAM1 220056Z 20014KT 17/M05 A2957 RMK A01 T01661053  RH  022%=      5-min Rain = 0
KAM1 220057Z 20016KT 17/M05 A2957 RMK A01 T01661054  RH  022%=      5-min Rain = 0
KAM1 220058Z 19014KT 17/M05 A2956 RMK A01 T01671054  RH  022%=      5-min Rain = 0
KAM1 220059Z 19014KT 17/M05 A2956 RMK A01 T01671054  RH  022%=      5-min Rain = 0
KAM1 220100Z 20018KT 17/M05 A2956 RMK A01 T01661054  RH  022%=      5-min Rain = 0
KAM1 220101Z 20015G21KT 17/M06 A2956 RMK A01 T01671055  RH  021%=      5-min Rain = 0
KAM1 220102Z 19015KT 17/M05 A2956 RMK A01 T01671054  RH  022%=      5-min Rain = 0
KAM1 220103Z 20014KT 17/M06 A2956 RMK A01 T01661055  RH  022%=      5-min Rain = 0
KAM1 220104Z 19019KT 17/M06 A2956 RMK A01 T01661055  RH  022%=      5-min Rain = 0
KAM1 220105Z 20018KT 17/M06 A2956 RMK A01 T01671056  RH  021%=      5-min Rain = 0
KAM1 220106Z 19018KT 17/M06 A2956 RMK A01 T01671056  RH  021%=      5-min Rain = 0
KAM1 220107Z 19015KT 17/M06 A2956 RMK A01 T01681056  RH  021%=      5-min Rain = 0
KAM1 220108Z 20016G21KT 17/M06 A2956 RMK A01 T01671056  RH  021%=      5-min Rain = 0
KAM1 220109Z 20018KT 17/M06 A2956 RMK A01 T01661057  RH  021%=      5-min Rain = 0
KAM1 220110Z 20017G22KT 17/M06 A2956 RMK A01 T01671057  RH  021%=      5-min Rain = 0
KAM1 220111Z 19019KT 17/M06 A2956 RMK A01 T01671058  RH  021%=      5-min Rain = 0
KAM1 220112Z 20017G22KT 17/M06 A2955 RMK A01 T01681058  RH  021%=      5-min Rain = 0
KAM1 220113Z 19019G25KT 17/M06 A2955 RMK A01 T01681059  RH  021%=      5-min Rain = 0
KAM1 220114Z 19019KT 17/M06 A2955 RMK A01 T01681059  RH  021%=      5-min Rain = 0
KAM1 220115Z 19019KT 17/M06 A2955 RMK A01 T01681058  RH  021%=      5-min Rain = 0
KAM1 220116Z 19018G23KT 17/M06 A2955 RMK A01 T01681059  RH  021%=      5-min Rain = 0
KAM1 220117Z 19019KT 17/M06 A2955 RMK A01 T01671059  RH  021%=      5-min Rain = 0
KAM1 220118Z 19018KT 17/M06 A2955 RMK A01 T01671059  RH  021%=      5-min Rain = 0
KAM1 220119Z 19018KT 17/M06 A2955 RMK A01 T01661059  RH  021%=      5-min Rain = 0
KAM1 220120Z 19019G24KT 17/M06 A2955 RMK A01 T01661059  RH  021%=      5-min Rain = 0
KAM1 220121Z 19018KT 17/M06 A2955 RMK A01 T01651059  RH  021%=      5-min Rain = 0
KAM1 220122Z 19018G23KT 17/M06 A2955 RMK A01 T01661059  RH  021%=      5-min Rain = 0
KAM1 220123Z 19018KT 17/M06 A2955 RMK A01 T01651059  RH  021%=      5-min Rain = 0
KAM1 220124Z 19020KT 17/M06 A2955 RMK A01 T01651059  RH  021%=      5-min Rain = 0
KAM1 220125Z 19020G25KT 17/M06 A2955 RMK A01 T01661059  RH  021%=      5-min Rain = 0
KAM1 220126Z 20020KT 17/M06 A2955 RMK A01 T01661060  RH  021%=      5-min Rain = 0
KAM1 220127Z 19019KT 17/M06 A2955 RMK A01 T01661060  RH  021%=      5-min Rain = 0
KAM1 220128Z 19021G26KT 17/M06 A2955 RMK A01 T01661060  RH  021%=      5-min Rain = 0
KAM1 220129Z 20019KT 17/M06 A2955 RMK A01 T01671061  RH  020%=      5-min Rain = 0
KAM1 220130Z 19019KT 17/M06 A2955 RMK A01 T01681060  RH  020%=      5-min Rain = 0
KAM1 220131Z 20018KT 17/M06 A2955 RMK A01 T01681060  RH  020%=      5-min Rain = 0
KAM1 220132Z 19017KT 17/M06 A2956 RMK A01 T01671061  RH  020%=      5-min Rain = 0
KAM1 220133Z 20017KT 17/M06 A2956 RMK A01 T01661061  RH  021%=      5-min Rain = 0
KAM1 220134Z 20020G26KT 17/M06 A2956 RMK A01 T01661060  RH  021%=      5-min Rain = 0
KAM1 220135Z 19019G24KT 17/M06 A2956 RMK A01 T01661061  RH  021%=      5-min Rain = 0
KAM1 220136Z 20021G28KT 17/M06 A2956 RMK A01 T01661060  RH  021%=      5-min Rain = 0
KAM1 220137Z 20017KT 17/M06 A2956 RMK A01 T01661061  RH  021%=      5-min Rain = 0
KAM1 220138Z 19019G26KT 17/M06 A2956 RMK A01 T01661060  RH  021%=      5-min Rain = 0
KAM1 220139Z 20018KT 17/M06 A2956 RMK A01 T01651060  RH  021%=      5-min Rain = 0
KAM1 220140Z 20017KT 16/M06 A2956 RMK A01 T01641061  RH  021%=      5-min Rain = 0
KAM1 220141Z 19019KT 16/M06 A2956 RMK A01 T01641061  RH  021%=      5-min Rain = 0
KAM1 220142Z 19018KT 16/M06 A2956 RMK A01 T01641061  RH  021%=      5-min Rain = 0
KAM1 220143Z 20019G24KT 16/M06 A2956 RMK A01 T01631061  RH  021%=      5-min Rain = 0
KAM1 220144Z 19019KT 16/M06 A2956 RMK A01 T01631061  RH  021%=      5-min Rain = 0
KAM1 220145Z 19020KT 16/M06 A2956 RMK A01 T01631061  RH  021%=      5-min Rain = 0
KAM1 220146Z 19017KT 16/M06 A2956 RMK A01 T01631061  RH  021%=      5-min Rain = 0
KAM1 220147Z 19017KT 16/M06 A2956 RMK A01 T01621061  RH  021%=      5-min Rain = 0
KAM1 220148Z 20018KT 16/M06 A2956 RMK A01 T01611061  RH  021%=      5-min Rain = 0
KAM1 220149Z 20018KT 16/M06 A2956 RMK A01 T01611061  RH  021%=      5-min Rain = 0
KAM1 220150Z 19018G24KT 16/M06 A2956 RMK A01 T01611061  RH  021%=      5-min Rain = 0
KAM1 220151Z 19019KT 16/M06 A2956 RMK A01 T01611061  RH  021%=      5-min Rain = 0
KAM1 220152Z 19019KT 16/M06 A2956 RMK A01 T01601062  RH  021%=      5-min Rain = 0
KAM1 220153Z 19016KT 16/M06 A2956 RMK A01 T01601062  RH  021%=      5-min Rain = 0
KAM1 220154Z 20015KT 16/M06 A2956 RMK A01 T01601062  RH  021%=      5-min Rain = 0
KAM1 220155Z 19018KT 16/M06 A2956 RMK A01 T01591062  RH  021%=      5-min Rain = 0
KAM1 220156Z 20016G21KT 16/M06 A2956 RMK A01 T01591062  RH  021%=      5-min Rain = 0
KAM1 220157Z 20019KT 16/M06 A2956 RMK A01 T01591062  RH  021%=      5-min Rain = 0
KAM1 220158Z 20017KT 16/M06 A2956 RMK A01 T01591062  RH  021%=      5-min Rain = 0
KAM1 220159Z 20017G22KT 16/M06 A2956 RMK A01 T01591062  RH  021%=      5-min Rain = 0
KAM1 220200Z 20016G21KT 16/M06 A2956 RMK A01 T01591062  RH  021%=      5-min Rain = 0
KAM1 220201Z 20016KT 16/M06 A2956 RMK A01 T01591062  RH  021%=      5-min Rain = 0
KAM1 220202Z 20018KT 16/M06 A2956 RMK A01 T01591062  RH  021%=      5-min Rain = 0
KAM1 220203Z 20016G21KT 16/M06 A2956 RMK A01 T01591062  RH  021%=      5-min Rain = 0
KAM1 220204Z 20016KT 16/M06 A2956 RMK A01 T01591062  RH  021%=      5-min Rain = 0
KAM1 220205Z 20016KT 16/M06 A2956 RMK A01 T01581061  RH  022%=      5-min Rain = 0
KAM1 220206Z 20015KT 16/M06 A2956 RMK A01 T01581062  RH  021%=      5-min Rain = 0
KAM1 220207Z 20016KT 16/M06 A2956 RMK A01 T01571062  RH  022%=      5-min Rain = 0
KAM1 220208Z 20015KT 16/M06 A2956 RMK A01 T01571062  RH  022%=      5-min Rain = 0
KAM1 220209Z 20016KT 16/M06 A2956 RMK A01 T01571062  RH  022%=      5-min Rain = 0
KAM1 220210Z 20017KT 16/M06 A2956 RMK A01 T01561062  RH  022%=      5-min Rain = 0
KAM1 220211Z 20015KT 16/M06 A2957 RMK A01 T01571062  RH  022%=      5-min Rain = 0
KAM1 220212Z 20016KT 16/M06 A2957 RMK A01 T01561062  RH  022%=      5-min Rain = 0
KAM1 220213Z 20015KT 16/M06 A2957 RMK A01 T01561062  RH  022%=      5-min Rain = 0
KAM1 220214Z 20016KT 16/M06 A2957 RMK A01 T01551062  RH  022%=      5-min Rain = 0
KAM1 220215Z 20017KT 16/M06 A2957 RMK A01 T01551062  RH  022%=      5-min Rain = 0
KAM1 220216Z 20016KT 16/M06 A2957 RMK A01 T01551062  RH  022%=      5-min Rain = 0
KAM1 220217Z 20018KT 16/M06 A2957 RMK A01 T01551062  RH  022%=      5-min Rain = 0
KAM1 220218Z 20018G23KT 16/M06 A2957 RMK A01 T01561062  RH  022%=      5-min Rain = 0
KAM1 220219Z 21016KT 16/M06 A2957 RMK A01 T01561062  RH  022%=      5-min Rain = 0
KAM1 220220Z 21017KT 16/M06 A2957 RMK A01 T01561062  RH  022%=      5-min Rain = 0
KAM1 220221Z 20016KT 16/M06 A2957 RMK A01 T01561062  RH  022%=      5-min Rain = 0
KAM1 220222Z 21016KT 16/M06 A2957 RMK A01 T01551062  RH  022%=      5-min Rain = 0
KAM1 220223Z 21018G23KT 16/M06 A2957 RMK A01 T01551062  RH  022%=      5-min Rain = 0
KAM1 220224Z 21017KT 16/M06 A2957 RMK A01 T01551063  RH  022%=      5-min Rain = 0
KAM1 220225Z 20017KT 16/M06 A2957 RMK A01 T01561062  RH  022%=      5-min Rain = 0
KAM1 220226Z 20017KT 16/M06 A2957 RMK A01 T01551063  RH  022%=      5-min Rain = 0
KAM1 220227Z 20015KT 16/M06 A2957 RMK A01 T01551062  RH  022%=      5-min Rain = 0
KAM1 220228Z 20018KT 15/M06 A2957 RMK A01 T01541063  RH  022%=      5-min Rain = 0
KAM1 220229Z 20017G22KT 15/M06 A2957 RMK A01 T01541062  RH  022%=      5-min Rain = 0
KAM1 220230Z 20018KT 15/M06 A2957 RMK A01 T01541062  RH  022%=      5-min Rain = 0
KAM1 220231Z 20018KT 15/M06 A2957 RMK A01 T01541062  RH  022%=      5-min Rain = 0
KAM1 220232Z 20019KT 15/M06 A2957 RMK A01 T01541062  RH  022%=      5-min Rain = 0
KAM1 220233Z 20015KT 15/M06 A2957 RMK A01 T01541063  RH  022%=      5-min Rain = 0
KAM1 220234Z 20019KT 15/M06 A2957 RMK A01 T01531063  RH  022%=      5-min Rain = 0
KAM1 220235Z 20017KT 15/M06 A2957 RMK A01 T01521063  RH  022%=      5-min Rain = 0
KAM1 220236Z 20016KT 15/M06 A2957 RMK A01 T01521063  RH  022%=      5-min Rain = 0
KAM1 220237Z 20016KT 15/M06 A2957 RMK A01 T01521063  RH  022%=      5-min Rain = 0
KAM1 220238Z 20015KT 15/M06 A2957 RMK A01 T01511063  RH  022%=      5-min Rain = 0
KAM1 220239Z 20016KT 15/M06 A2957 RMK A01 T01511063  RH  022%=      5-min Rain = 0
KAM1 220240Z 20014KT 15/M06 A2957 RMK A01 T01501063  RH  022%=      5-min Rain = 0
KAM1 220241Z 20013KT 15/M06 A2957 RMK A01 T01501062  RH  023%=      5-min Rain = 0
KAM1 220242Z 20015KT 15/M06 A2957 RMK A01 T01491063  RH  023%=      5-min Rain = 0
KAM1 220243Z 20014KT 15/M06 A2957 RMK A01 T01491062  RH  023%=      5-min Rain = 0
KAM1 220244Z 20016KT 15/M06 A2957 RMK A01 T01491062  RH  023%=      5-min Rain = 0
KAM1 220245Z 20015KT 15/M06 A2957 RMK A01 T01481062  RH  023%=      5-min Rain = 0
KAM1 220246Z 20014KT 15/M06 A2957 RMK A01 T01491062  RH  023%=      5-min Rain = 0
KAM1 220247Z 20015KT 15/M06 A2958 RMK A01 T01481062  RH  023%=      5-min Rain = 0
KAM1 220248Z 20013KT 15/M06 A2958 RMK A01 T01481063  RH  023%=      5-min Rain = 0
KAM1 220249Z 21016KT 15/M06 A2958 RMK A01 T01471062  RH  023%=      5-min Rain = 0
KAM1 220250Z 20016KT 15/M06 A2958 RMK A01 T01471062  RH  023%=      5-min Rain = 0
KAM1 220251Z 20015KT 15/M06 A2958 RMK A01 T01471062  RH  023%=      5-min Rain = 0
KAM1 220252Z 20016KT 15/M06 A2958 RMK A01 T01481062  RH  023%=      5-min Rain = 0
KAM1 220253Z 20014KT 15/M06 A2958 RMK A01 T01481062  RH  023%=      5-min Rain = 0
KAM1 220254Z 20013G18KT 15/M06 A2958 RMK A01 T01461062  RH  023%=      5-min Rain = 0
KAM1 220255Z 21014KT 15/M06 A2958 RMK A01 T01451062  RH  023%=      5-min Rain = 0
KAM1 220256Z 21014KT 15/M06 A2957 RMK A01 T01451062  RH  023%=      5-min Rain = 0
KAM1 220257Z 20014KT 14/M06 A2957 RMK A01 T01441062  RH  023%=      5-min Rain = 0
KAM1 220258Z 21013KT 14/M06 A2957 RMK A01 T01441062  RH  024%=      5-min Rain = 0
KAM1 220259Z 21014KT 14/M06 A2957 RMK A01 T01431062  RH  024%=      5-min Rain = 0
KAM1 220300Z 21014KT 14/M06 A2957 RMK A01 T01431062  RH  024%=      5-min Rain = 0
KAM1 220301Z 21015KT 14/M06 A2957 RMK A01 T01421062  RH  024%=      5-min Rain = 0
KAM1 220302Z 21015KT 14/M06 A2957 RMK A01 T01421062  RH  024%=      5-min Rain = 0
KAM1 220303Z 21015KT 14/M06 A2957 RMK A01 T01421062  RH  024%=      5-min Rain = 0
KAM1 220304Z 21015KT 14/M06 A2957 RMK A01 T01421062  RH  024%=      5-min Rain = 0
KAM1 220305Z 20016KT 14/M06 A2957 RMK A01 T01431062  RH  024%=      5-min Rain = 0
KAM1 220306Z 21017KT 14/M06 A2957 RMK A01 T01421061  RH  024%=      5-min Rain = 0
KAM1 220307Z 21014KT 14/M06 A2958 RMK A01 T01421061  RH  024%=      5-min Rain = 0
KAM1 220308Z 21012KT 14/M06 A2958 RMK A01 T01411061  RH  024%=      5-min Rain = 0
KAM1 220309Z 21015KT 14/M06 A2958 RMK A01 T01401061  RH  024%=      5-min Rain = 0
KAM1 220310Z 21013KT 14/M06 A2958 RMK A01 T01401061  RH  024%=      5-min Rain = 0
KAM1 220311Z 21014KT 14/M06 A2958 RMK A01 T01391061  RH  024%=      5-min Rain = 0
KAM1 220312Z 21015KT 14/M06 A2958 RMK A01 T01391061  RH  025%=      5-min Rain = 0
KAM1 220313Z 21013KT 14/M06 A2958 RMK A01 T01391060  RH  025%=      5-min Rain = 0
KAM1 220314Z 20013KT 14/M06 A2958 RMK A01 T01391060  RH  025%=      5-min Rain = 0
KAM1 220315Z 21011KT 14/M06 A2958 RMK A01 T01381060  RH  025%=      5-min Rain = 0
KAM1 220316Z 21014KT 14/M06 A2958 RMK A01 T01371060  RH  025%=      5-min Rain = 0
KAM1 220317Z 21013KT 14/M06 A2958 RMK A01 T01371060  RH  025%=      5-min Rain = 0
KAM1 220318Z 21015KT 14/M06 A2958 RMK A01 T01371060  RH  025%=      5-min Rain = 0
KAM1 220319Z 20015G21KT 14/M06 A2958 RMK A01 T01381060  RH  025%=      5-min Rain = 0
KAM1 220320Z 20015KT 14/M06 A2958 RMK A01 T01381060  RH  025%=      5-min Rain = 0
KAM1 220321Z 21014G19KT 14/M06 A2957 RMK A01 T01381060  RH  025%=      5-min Rain = 0
KAM1 220322Z 21013KT 14/M06 A2957 RMK A01 T01371060  RH  025%=      5-min Rain = 0
KAM1 220323Z 21014KT 14/M06 A2957 RMK A01 T01371061  RH  025%=      5-min Rain = 0
KAM1 220324Z 20014KT 14/M06 A2957 RMK A01 T01371060  RH  025%=      5-min Rain = 0
KAM1 220325Z 21014KT 14/M06 A2957 RMK A01 T01361060  RH  025%=      5-min Rain = 0
KAM1 220326Z 20015KT 14/M06 A2957 RMK A01 T01361060  RH  025%=      5-min Rain = 0
KAM1 220327Z 20014KT 14/M06 A2957 RMK A01 T01361060  RH  025%=      5-min Rain = 0
KAM1 220328Z 21015KT 14/M06 A2957 RMK A01 T01361060  RH  025%=      5-min Rain = 0
KAM1 220329Z 21015KT 14/M06 A2957 RMK A01 T01361060  RH  025%=      5-min Rain = 0
KAM1 220330Z 20015KT 14/M06 A2957 RMK A01 T01361060  RH  025%=      5-min Rain = 0
KAM1 220331Z 21015KT 14/M06 A2957 RMK A01 T01361060  RH  025%=      5-min Rain = 0
KAM1 220332Z 21014KT 14/M06 A2957 RMK A01 T01361060  RH  025%=      5-min Rain = 0
KAM1 220333Z 21014KT 14/M06 A2957 RMK A01 T01361061  RH  025%=      5-min Rain = 0
KAM1 220334Z 21013KT 14/M06 A2957 RMK A01 T01351061  RH  025%=      5-min Rain = 0
KAM1 220335Z 21012KT 13/M06 A2957 RMK A01 T01341061  RH  025%=      5-min Rain = 0
KAM1 220336Z 21013KT 13/M06 A2957 RMK A01 T01331060  RH  026%=      5-min Rain = 0
KAM1 220337Z 21013KT 13/M06 A2958 RMK A01 T01331061  RH  026%=      5-min Rain = 0
KAM1 220338Z 20014KT 13/M06 A2957 RMK A01 T01331060  RH  026%=      5-min Rain = 0
KAM1 220339Z 21014KT 13/M06 A2957 RMK A01 T01341060  RH  025%=      5-min Rain = 0
KAM1 220340Z 21014KT 13/M06 A2957 RMK A01 T01331060  RH  025%=      5-min Rain = 0
KAM1 220341Z 20015KT 13/M06 A2957 RMK A01 T01341060  RH  025%=      5-min Rain = 0
KAM1 220342Z 20015KT 13/M06 A2957 RMK A01 T01331060  RH  025%=      5-min Rain = 0
KAM1 220343Z 21013KT 13/M06 A2957 RMK A01 T01331061  RH  025%=      5-min Rain = 0
KAM1 220344Z 21015KT 13/M06 A2957 RMK A01 T01341060  RH  025%=      5-min Rain = 0
KAM1 220345Z 20013KT 13/M06 A2958 RMK A01 T01331060  RH  026%=      5-min Rain = 0
KAM1 220346Z 20014KT 13/M06 A2957 RMK A01 T01331060  RH  026%=      5-min Rain = 0
KAM1 220347Z 20015KT 13/M06 A2957 RMK A01 T01321060  RH  026%=      5-min Rain = 0
KAM1 220348Z 20015KT 13/M06 A2957 RMK A01 T01321060  RH  026%=      5-min Rain = 0
KAM1 220349Z 20016KT 13/M06 A2957 RMK A01 T01331060  RH  026%=      5-min Rain = 0
KAM1 220350Z 20016KT 13/M06 A2957 RMK A01 T01341060  RH  026%=      5-min Rain = 0
KAM1 220351Z 20016KT 13/M06 A2957 RMK A01 T01331060  RH  025%=      5-min Rain = 0
KAM1 220352Z 20014KT 13/M06 A2957 RMK A01 T01341060  RH  025%=      5-min Rain = 0
KAM1 220353Z 20016KT 13/M06 A2957 RMK A01 T01341060  RH  025%=      5-min Rain = 0
KAM1 220354Z 20015KT 13/M06 A2957 RMK A01 T01341060  RH  025%=      5-min Rain = 0
KAM1 220355Z 20015KT 13/M06 A2957 RMK A01 T01331060  RH  026%=      5-min Rain = 0
KAM1 220356Z 20014KT 13/M06 A2957 RMK A01 T01331060  RH  026%=      5-min Rain = 0
KAM1 220357Z 20013KT 13/M06 A2957 RMK A01 T01331060  RH  026%=      5-min Rain = 0
KAM1 220358Z 20014KT 13/M06 A2958 RMK A01 T01321060  RH  026%=      5-min Rain = 0
KAM1 220359Z 20014KT 13/M06 A2957 RMK A01 T01311060  RH  026%=      5-min Rain = 0
KAM1 220400Z 20015KT 13/M06 A2957 RMK A01 T01311060  RH  026%=      5-min Rain = 0
KAM1 220401Z 20016KT 13/M06 A2957 RMK A01 T01321060  RH  026%=      5-min Rain = 0
KAM1 220402Z 20014KT 13/M06 A2957 RMK A01 T01321060  RH  026%=      5-min Rain = 0
KAM1 220403Z 20015KT 13/M06 A2957 RMK A01 T01321060  RH  026%=      5-min Rain = 0
KAM1 220404Z 20013KT 13/M06 A2958 RMK A01 T01321060  RH  026%=      5-min Rain = 0
KAM1 220405Z 20013KT 13/M06 A2958 RMK A01 T01321060  RH  026%=      5-min Rain = 0
KAM1 220406Z 20013KT 13/M06 A2958 RMK A01 T01321060  RH  026%=      5-min Rain = 0
KAM1 220407Z 20013KT 13/M06 A2958 RMK A01 T01311060  RH  026%=      5-min Rain = 0
KAM1 220408Z 20014KT 13/M06 A2958 RMK A01 T01311059  RH  026%=      5-min Rain = 0
KAM1 220409Z 20014KT 13/M06 A2957 RMK A01 T01311060  RH  026%=      5-min Rain = 0
KAM1 220410Z 20013G18KT 13/M06 A2958 RMK A01 T01311059  RH  026%=      5-min Rain = 0
KAM1 220411Z 19014KT 13/M06 A2957 RMK A01 T01311060  RH  026%=      5-min Rain = 0
KAM1 220412Z 20014KT 13/M06 A2958 RMK A01 T01311059  RH  026%=      5-min Rain = 0
KAM1 220413Z 20016KT 13/M06 A2957 RMK A01 T01301059  RH  026%=      5-min Rain = 0
KAM1 220414Z 20015KT 13/M06 A2957 RMK A01 T01311059  RH  026%=      5-min Rain = 0
KAM1 220415Z 20015KT 13/M06 A2957 RMK A01 T01311059  RH  026%=      5-min Rain = 0
KAM1 220416Z 20014KT 13/M06 A2957 RMK A01 T01311059  RH  026%=      5-min Rain = 0
KAM1 220417Z 20013KT 13/M06 A2957 RMK A01 T01301059  RH  026%=      5-min Rain = 0
KAM1 220418Z 20013KT 13/M06 A2957 RMK A01 T01291059  RH  026%=      5-min Rain = 0
KAM1 220419Z 20014KT 13/M06 A2957 RMK A01 T01281059  RH  027%=      5-min Rain = 0
KAM1 220420Z 20013KT 13/M06 A2957 RMK A01 T01281059  RH  027%=      5-min Rain = 0
KAM1 220421Z 20014KT 13/M06 A2957 RMK A01 T01281059  RH  027%=      5-min Rain = 0
KAM1 220422Z 20014KT 13/M06 A2957 RMK A01 T01281059  RH  027%=      5-min Rain = 0
KAM1 220423Z 20014KT 13/M06 A2957 RMK A01 T01291059  RH  027%=      5-min Rain = 0
KAM1 220424Z 20013KT 13/M06 A2957 RMK A01 T01291059  RH  027%=      5-min Rain = 0
KAM1 220425Z 20013KT 13/M06 A2957 RMK A01 T01281059  RH  027%=      5-min Rain = 0
KAM1 220426Z 20013KT 13/M06 A2957 RMK A01 T01271059  RH  027%=      5-min Rain = 0
KAM1 220427Z 20014KT 13/M06 A2957 RMK A01 T01261059  RH  027%=      5-min Rain = 0
KAM1 220428Z 20012KT 13/M06 A2957 RMK A01 T01261059  RH  027%=      5-min Rain = 0
KAM1 220429Z 20013KT 13/M06 A2957 RMK A01 T01251059  RH  027%=      5-min Rain = 0
KAM1 220430Z 20013KT 12/M06 A2957 RMK A01 T01241059  RH  027%=      5-min Rain = 0
KAM1 220431Z 20012KT 12/M06 A2957 RMK A01 T01231059  RH  028%=      5-min Rain = 0
KAM1 220432Z 20012KT 12/M06 A2957 RMK A01 T01221058  RH  028%=      5-min Rain = 0
KAM1 220433Z 19013KT 12/M06 A2957 RMK A01 T01211059  RH  028%=      5-min Rain = 0
KAM1 220434Z 20013KT 12/M06 A2957 RMK A01 T01211058  RH  028%=      5-min Rain = 0
KAM1 220435Z 20013KT 12/M06 A2957 RMK A01 T01211058  RH  028%=      5-min Rain = 0
KAM1 220436Z 20012KT 12/M06 A2957 RMK A01 T01211058  RH  028%=      5-min Rain = 0
KAM1 220437Z 20014KT 12/M06 A2957 RMK A01 T01211058  RH  028%=      5-min Rain = 0
KAM1 220438Z 20014KT 12/M06 A2957 RMK A01 T01211058  RH  028%=      5-min Rain = 0
KAM1 220439Z 20014KT 12/M06 A2957 RMK A01 T01221058  RH  028%=      5-min Rain = 0
KAM1 220440Z 20014KT 12/M06 A2957 RMK A01 T01221058  RH  028%=      5-min Rain = 0
KAM1 220441Z 20015KT 12/M06 A2957 RMK A01 T01221058  RH  028%=      5-min Rain = 0
KAM1 220442Z 20014KT 12/M06 A2957 RMK A01 T01221058  RH  028%=      5-min Rain = 0
KAM1 220443Z 20014KT 12/M06 A2957 RMK A01 T01231058  RH  028%=      5-min Rain = 0
KAM1 220444Z 20014KT 12/M06 A2957 RMK A01 T01231058  RH  028%=      5-min Rain = 0
KAM1 220445Z 20014G19KT 12/M06 A2957 RMK A01 T01241058  RH  028%=      5-min Rain = 0
KAM1 220446Z 20014KT 12/M06 A2957 RMK A01 T01241058  RH  027%=      5-min Rain = 0
KAM1 220447Z 20013KT 12/M06 A2957 RMK A01 T01241058  RH  028%=      5-min Rain = 0
KAM1 220448Z 19013KT 12/M06 A2958 RMK A01 T01241058  RH  028%=      5-min Rain = 0
KAM1 220449Z 19015KT 12/M06 A2958 RMK A01 T01241057  RH  028%=      5-min Rain = 0
KAM1 220450Z 19014KT 12/M06 A2958 RMK A01 T01231058  RH  028%=      5-min Rain = 0
KAM1 220451Z 18015KT 12/M06 A2958 RMK A01 T01211058  RH  028%=      5-min Rain = 0
KAM1 220452Z 17014KT 12/M06 A2958 RMK A01 T01191058  RH  028%=      5-min Rain = 0
KAM1 220453Z 18012KT 12/M06 A2958 RMK A01 T01171058  RH  029%=      5-min Rain = 0
KAM1 220454Z 19015KT 12/M06 A2958 RMK A01 T01151058  RH  029%=      5-min Rain = 0
KAM1 220455Z 19014KT 12/M06 A2958 RMK A01 T01171058  RH  029%=      5-min Rain = 0
KAM1 220456Z 20012KT 12/M06 A2958 RMK A01 T01191058  RH  029%=      5-min Rain = 0
KAM1 220457Z 20015KT 12/M06 A2958 RMK A01 T01191058  RH  029%=      5-min Rain = 0
KAM1 220458Z 20016KT 12/M06 A2958 RMK A01 T01221058  RH  028%=      5-min Rain = 0
KAM1 220459Z 20016KT 12/M06 A2958 RMK A01 T01241058  RH  028%=      5-min Rain = 0
KAM1 220500Z 20015KT 12/M06 A2958 RMK A01 T01241058  RH  028%=      5-min Rain = 0
KAM1 220501Z 20016KT 12/M06 A2958 RMK A01 T01241058  RH  028%=      5-min Rain = 0
KAM1 220502Z 20018G24KT 12/M06 A2958 RMK A01 T01241058  RH  027%=      5-min Rain = 0
KAM1 220503Z 20018KT 13/M06 A2958 RMK A01 T01281058  RH  027%=      5-min Rain = 0
KAM1 220504Z 20017KT 13/M06 A2958 RMK A01 T01311058  RH  026%=      5-min Rain = 0
KAM1 220505Z 19018KT 13/M06 A2958 RMK A01 T01321058  RH  026%=      5-min Rain = 0
KAM1 220506Z 20016KT 13/M06 A2958 RMK A01 T01331058  RH  026%=      5-min Rain = 0
KAM1 220507Z 20015KT 13/M06 A2958 RMK A01 T01331059  RH  026%=      5-min Rain = 0
KAM1 220508Z 20016KT 13/M06 A2958 RMK A01 T01331059  RH  026%=      5-min Rain = 0
KAM1 220509Z 20014KT 13/M06 A2958 RMK A01 T01321059  RH  026%=      5-min Rain = 0
KAM1 220510Z 19015KT 13/M06 A2958 RMK A01 T01321059  RH  026%=      5-min Rain = 0
KAM1 220511Z 20013KT 13/M06 A2958 RMK A01 T01301058  RH  027%=      5-min Rain = 0
KAM1 220512Z 19014KT 13/M06 A2958 RMK A01 T01281058  RH  027%=      5-min Rain = 0
KAM1 220513Z 19015KT 13/M06 A2958 RMK A01 T01271058  RH  027%=      5-min Rain = 0
KAM1 220514Z 19016KT 13/M06 A2958 RMK A01 T01271057  RH  027%=      5-min Rain = 0
KAM1 220515Z 20016KT 13/M06 A2958 RMK A01 T01271057  RH  027%=      5-min Rain = 0
KAM1 220516Z 20016KT 13/M06 A2958 RMK A01 T01271056  RH  027%=      5-min Rain = 0
KAM1 220517Z 20015KT 13/M06 A2958 RMK A01 T01271056  RH  027%=      5-min Rain = 0
KAM1 220518Z 20016KT 13/M06 A2958 RMK A01 T01271056  RH  027%=      5-min Rain = 0
KAM1 220519Z 20016KT 13/M06 A2958 RMK A01 T01281055  RH  027%=      5-min Rain = 0
KAM1 220520Z 20014G19KT 13/M06 A2958 RMK A01 T01281055  RH  028%=      5-min Rain = 0
KAM1 220521Z 20014KT 13/M06 A2958 RMK A01 T01271055  RH  028%=      5-min Rain = 0
KAM1 220522Z 20016KT 13/M05 A2958 RMK A01 T01261054  RH  028%=      5-min Rain = 0
KAM1 220523Z 20017KT 13/M05 A2959 RMK A01 T01251054  RH  028%=      5-min Rain = 0
KAM1 220524Z 21015KT 12/M05 A2959 RMK A01 T01241053  RH  029%=      5-min Rain = 0
KAM1 220525Z 20014KT 12/M05 A2958 RMK A01 T01241053  RH  029%=      5-min Rain = 0
KAM1 220526Z 21015KT 12/M05 A2958 RMK A01 T01241052  RH  029%=      5-min Rain = 0
KAM1 220527Z 21015KT 12/M05 A2958 RMK A01 T01231052  RH  029%=      5-min Rain = 0
KAM1 220528Z 21015KT 12/M05 A2958 RMK A01 T01231051  RH  029%=      5-min Rain = 0
KAM1 220529Z 21015KT 12/M05 A2958 RMK A01 T01221050  RH  030%=      5-min Rain = 0
KAM1 220530Z 21014KT 12/M05 A2959 RMK A01 T01221050  RH  030%=      5-min Rain = 0
KAM1 220531Z 21013KT 12/M05 A2958 RMK A01 T01211049  RH  030%=      5-min Rain = 0
KAM1 220532Z 21014KT 12/M05 A2958 RMK A01 T01211049  RH  030%=      5-min Rain = 0
KAM1 220533Z 21014KT 12/M05 A2958 RMK A01 T01201047  RH  031%=      5-min Rain = 0
KAM1 220534Z 20015KT 12/M05 A2958 RMK A01 T01211047  RH  031%=      5-min Rain = 0
KAM1 220535Z 20012KT 12/M05 A2959 RMK A01 T01201047  RH  031%=      5-min Rain = 0
KAM1 220536Z 20014KT 12/M05 A2959 RMK A01 T01181046  RH  031%=      5-min Rain = 0
KAM1 220537Z 21013KT 12/M04 A2958 RMK A01 T01181044  RH  032%=      5-min Rain = 0
KAM1 220538Z 20013KT 12/M04 A2959 RMK A01 T01181044  RH  032%=      5-min Rain = 0
KAM1 220539Z 20014G20KT 12/M04 A2959 RMK A01 T01171043  RH  033%=      5-min Rain = 0
KAM1 220540Z 20015KT 12/M04 A2959 RMK A01 T01161041  RH  033%=      5-min Rain = 0
KAM1 220541Z 20016KT 12/M04 A2959 RMK A01 T01161040  RH  033%=      5-min Rain = 0
KAM1 220542Z 20017KT 12/M04 A2959 RMK A01 T01161038  RH  034%=      5-min Rain = 0
KAM1 220543Z 20015G20KT 12/M04 A2959 RMK A01 T01161037  RH  034%=      5-min Rain = 0
KAM1 220544Z 20015G21KT 12/M04 A2959 RMK A01 T01161036  RH  034%=      5-min Rain = 0
KAM1 220545Z 20014KT 12/M03 A2959 RMK A01 T01161034  RH  035%=      5-min Rain = 0
KAM1 220546Z 20015KT 12/M03 A2959 RMK A01 T01151034  RH  035%=      5-min Rain = 0
KAM1 220547Z 20014KT 11/M03 A2959 RMK A01 T01141033  RH  036%=      5-min Rain = 0
KAM1 220548Z 20014KT 11/M03 A2959 RMK A01 T01141032  RH  036%=      5-min Rain = 0
KAM1 220549Z 20014KT 11/M03 A2959 RMK A01 T01141030  RH  036%=      5-min Rain = 0
KAM1 220550Z 20017KT 11/M03 A2959 RMK A01 T01131030  RH  037%=      5-min Rain = 0
KAM1 220551Z 20015KT 11/M03 A2959 RMK A01 T01131028  RH  037%=      5-min Rain = 0
KAM1 220552Z 20017KT 11/M03 A2959 RMK A01 T01141027  RH  037%=      5-min Rain = 0
KAM1 220553Z 20015G21KT 11/M03 A2959 RMK A01 T01141026  RH  038%=      5-min Rain = 0
KAM1 220554Z 20015KT 11/M03 A2959 RMK A01 T01141025  RH  038%=      5-min Rain = 0
KAM1 220555Z 20014KT 11/M03 A2959 RMK A01 T01131025  RH  038%=      5-min Rain = 0
KAM1 220556Z 21019KT 11/M02 A2959 RMK A01 T01121024  RH  038%=      5-min Rain = 0
KAM1 220557Z 20016KT 11/M02 A2959 RMK A01 T01131023  RH  039%=      5-min Rain = 0
KAM1 220558Z 20017KT 11/M02 A2959 RMK A01 T01131023  RH  039%=      5-min Rain = 0
KAM1 220559Z 20017KT 11/M02 A2959 RMK A01 T01131022  RH  039%=      5-min Rain = 0

Page generated in 0.1314 seconds.